<?xml version="1.0" encoding="UTF-8" standalone="no" ?>
<gpx xmlns="http://www.topografix.com/GPX/1/1" xmlns:xsi="http://www.w3.org/2001/XMLSchema-instance" xsi:schemaLocation="http://www.topografix.com/GPX/1/1 http://www.topografix.com/GPX/1/1/gpx.xsd" version="1.1" creator="VisuGPX - https://www.visugpx.com">
  <metadata>
    <name>Monné Rouye</name>
    <desc><![CDATA[Au départ du parking de la carrière à Espiadet, au-dessus du lac de Payolle, montée régulière et progressive le long de la Serre det Pla det Cot.
Superbe balcon sur le col d?Aspin, le Midi de Bigorre et le massif de l?Arbizon]]></desc>
  </metadata>
  <wpt lat="42.94247" lon="0.29314">
    <ele>1234</ele>
    <name><![CDATA[Repecho de 19% durante 64 metros]]></name>
  </wpt>
  <wpt lat="42.9422" lon="0.29377">
    <ele>1246</ele>
    <name><![CDATA[Repecho de 23% durante 201 metros]]></name>
  </wpt>
  <wpt lat="42.94229" lon="0.29535">
    <ele>1293</ele>
    <name><![CDATA[Repecho de 25% durante 197 metros]]></name>
  </wpt>
  <wpt lat="42.94207" lon="0.29723">
    <ele>1342</ele>
    <name><![CDATA[Repecho de 19% durante 32 metros]]></name>
  </wpt>
  <wpt lat="42.942" lon="0.29759">
    <ele>1348</ele>
    <name><![CDATA[Repecho de 11% durante 161 metros]]></name>
  </wpt>
  <wpt lat="42.94207" lon="0.2991">
    <ele>1365</ele>
    <name><![CDATA[Repecho de 14% durante 94 metros]]></name>
  </wpt>
  <wpt lat="42.94237" lon="0.30023">
    <ele>1385</ele>
    <name><![CDATA[Repecho de 13% durante 160 metros]]></name>
  </wpt>
  <wpt lat="42.94248" lon="0.30192">
    <ele>1406</ele>
    <name><![CDATA[Repecho de 21% durante 105 metros]]></name>
  </wpt>
  <wpt lat="42.94312" lon="0.30268">
    <ele>1428</ele>
    <name><![CDATA[Repecho de 21% durante 66 metros]]></name>
  </wpt>
  <wpt lat="42.94528" lon="0.30534">
    <ele>1443</ele>
    <name><![CDATA[Repecho de 11% durante 64 metros]]></name>
  </wpt>
  <wpt lat="42.94532" lon="0.30611">
    <ele>1450</ele>
    <name><![CDATA[Repecho de 15% durante 133 metros]]></name>
  </wpt>
  <wpt lat="42.94538" lon="0.30761">
    <ele>1470</ele>
    <name><![CDATA[Repecho de 28% durante 97 metros]]></name>
  </wpt>
  <wpt lat="42.94602" lon="0.30814">
    <ele>1497</ele>
    <name><![CDATA[Repecho de 19% durante 94 metros]]></name>
  </wpt>
  <wpt lat="42.94646" lon="0.30863">
    <ele>1515</ele>
    <name><![CDATA[Repecho de 25% durante 32 metros]]></name>
  </wpt>
  <wpt lat="42.94668" lon="0.30884">
    <ele>1523</ele>
    <name><![CDATA[Repecho de 34% durante 263 metros]]></name>
  </wpt>
  <wpt lat="42.94806" lon="0.31085">
    <ele>1613</ele>
    <name><![CDATA[Repecho de 37% durante 65 metros]]></name>
  </wpt>
  <wpt lat="42.94873" lon="0.31193">
    <ele>1638</ele>
    <name><![CDATA[Repecho de 11% durante 63 metros]]></name>
  </wpt>
  <wpt lat="42.94913" lon="0.31245">
    <ele>1645</ele>
    <name><![CDATA[Repecho de 17% durante 96 metros]]></name>
  </wpt>
  <wpt lat="42.94969" lon="0.3133">
    <ele>1661</ele>
    <name><![CDATA[Repecho de 22% durante 96 metros]]></name>
  </wpt>
  <wpt lat="42.95127" lon="0.31599">
    <ele>1695</ele>
    <name><![CDATA[Repecho de 23% durante 149 metros]]></name>
  </wpt>
  <wpt lat="42.95137" lon="0.31751">
    <ele>1730</ele>
    <name><![CDATA[Repecho de 18% durante 126 metros]]></name>
  </wpt>
  <trk>
    <name><![CDATA[www.ibpindex.com 37577051426883]]></name>
    <desc><![CDATA[www.ibpindex.com 37577051426883]]></desc>
    <trkseg>
      <trkpt lat="42.94412" lon="0.28866">
        <ele>1116</ele>
        <time>2019-01-26T09:07:31Z</time>
      </trkpt>
      <trkpt lat="42.94409" lon="0.28878">
        <ele>1116</ele>
        <time>2019-01-26T09:07:41Z</time>
      </trkpt>
      <trkpt lat="42.94406" lon="0.28892">
        <ele>1116</ele>
        <time>2019-01-26T09:07:51Z</time>
      </trkpt>
      <trkpt lat="42.94405" lon="0.28905">
        <ele>1116</ele>
        <time>2019-01-26T09:08:02Z</time>
      </trkpt>
      <trkpt lat="42.94402" lon="0.28918">
        <ele>1116</ele>
        <time>2019-01-26T09:08:40Z</time>
      </trkpt>
      <trkpt lat="42.94396" lon="0.2891">
        <ele>1118</ele>
        <time>2019-01-26T09:11:58Z</time>
      </trkpt>
      <trkpt lat="42.94388" lon="0.28902">
        <ele>1118</ele>
        <time>2019-01-26T09:12:52Z</time>
      </trkpt>
      <trkpt lat="42.94374" lon="0.28886">
        <ele>1119</ele>
        <time>2019-01-26T09:13:14Z</time>
      </trkpt>
      <trkpt lat="42.94367" lon="0.28877">
        <ele>1120</ele>
        <time>2019-01-26T09:13:24Z</time>
      </trkpt>
      <trkpt lat="42.94359" lon="0.2887">
        <ele>1121</ele>
        <time>2019-01-26T09:13:34Z</time>
      </trkpt>
      <trkpt lat="42.94351" lon="0.28864">
        <ele>1122</ele>
        <time>2019-01-26T09:13:45Z</time>
      </trkpt>
      <trkpt lat="42.94342" lon="0.28861">
        <ele>1123</ele>
        <time>2019-01-26T09:14:01Z</time>
      </trkpt>
      <trkpt lat="42.94335" lon="0.28852">
        <ele>1124</ele>
        <time>2019-01-26T09:14:10Z</time>
      </trkpt>
      <trkpt lat="42.94326" lon="0.2885">
        <ele>1125</ele>
        <time>2019-01-26T09:14:19Z</time>
      </trkpt>
      <trkpt lat="42.94316" lon="0.28851">
        <ele>1125.8</ele>
        <time>2019-01-26T09:14:28Z</time>
      </trkpt>
      <trkpt lat="42.94306" lon="0.2885">
        <ele>1127</ele>
        <time>2019-01-26T09:14:38Z</time>
      </trkpt>
      <trkpt lat="42.94297" lon="0.28848">
        <ele>1128</ele>
        <time>2019-01-26T09:14:48Z</time>
      </trkpt>
      <trkpt lat="42.94288" lon="0.28844">
        <ele>1129</ele>
        <time>2019-01-26T09:15:01Z</time>
      </trkpt>
      <trkpt lat="42.94279" lon="0.28842">
        <ele>1130</ele>
        <time>2019-01-26T09:15:12Z</time>
      </trkpt>
      <trkpt lat="42.9427" lon="0.28841">
        <ele>1130</ele>
        <time>2019-01-26T09:15:21Z</time>
      </trkpt>
      <trkpt lat="42.9426" lon="0.28841">
        <ele>1130</ele>
        <time>2019-01-26T09:15:29Z</time>
      </trkpt>
      <trkpt lat="42.94251" lon="0.28841">
        <ele>1132</ele>
        <time>2019-01-26T09:15:39Z</time>
      </trkpt>
      <trkpt lat="42.94241" lon="0.2884">
        <ele>1133</ele>
        <time>2019-01-26T09:15:49Z</time>
      </trkpt>
      <trkpt lat="42.94231" lon="0.28843">
        <ele>1133</ele>
        <time>2019-01-26T09:16:00Z</time>
      </trkpt>
      <trkpt lat="42.94222" lon="0.28846">
        <ele>1134</ele>
        <time>2019-01-26T09:16:08Z</time>
      </trkpt>
      <trkpt lat="42.94213" lon="0.28849">
        <ele>1136</ele>
        <time>2019-01-26T09:16:19Z</time>
      </trkpt>
      <trkpt lat="42.94203" lon="0.28856">
        <ele>1137</ele>
        <time>2019-01-26T09:16:28Z</time>
      </trkpt>
      <trkpt lat="42.94195" lon="0.28861">
        <ele>1138</ele>
        <time>2019-01-26T09:16:38Z</time>
      </trkpt>
      <trkpt lat="42.94186" lon="0.28864">
        <ele>1139</ele>
        <time>2019-01-26T09:16:48Z</time>
      </trkpt>
      <trkpt lat="42.94177" lon="0.2887">
        <ele>1140</ele>
        <time>2019-01-26T09:17:01Z</time>
      </trkpt>
      <trkpt lat="42.94167" lon="0.28874">
        <ele>1141</ele>
        <time>2019-01-26T09:17:11Z</time>
      </trkpt>
      <trkpt lat="42.94158" lon="0.28876">
        <ele>1142</ele>
        <time>2019-01-26T09:17:20Z</time>
      </trkpt>
      <trkpt lat="42.94149" lon="0.28881">
        <ele>1143</ele>
        <time>2019-01-26T09:17:28Z</time>
      </trkpt>
      <trkpt lat="42.94134" lon="0.28895">
        <ele>1145</ele>
        <time>2019-01-26T09:17:44Z</time>
      </trkpt>
      <trkpt lat="42.94127" lon="0.28902">
        <ele>1146</ele>
        <time>2019-01-26T09:17:53Z</time>
      </trkpt>
      <trkpt lat="42.9412" lon="0.2891">
        <ele>1146</ele>
        <time>2019-01-26T09:18:01Z</time>
      </trkpt>
      <trkpt lat="42.94112" lon="0.28918">
        <ele>1146</ele>
        <time>2019-01-26T09:18:08Z</time>
      </trkpt>
      <trkpt lat="42.94106" lon="0.28928">
        <ele>1148</ele>
        <time>2019-01-26T09:18:22Z</time>
      </trkpt>
      <trkpt lat="42.94101" lon="0.28939">
        <ele>1149</ele>
        <time>2019-01-26T09:18:39Z</time>
      </trkpt>
      <trkpt lat="42.94097" lon="0.28951">
        <ele>1150</ele>
        <time>2019-01-26T09:18:47Z</time>
      </trkpt>
      <trkpt lat="42.94091" lon="0.2896">
        <ele>1151</ele>
        <time>2019-01-26T09:18:58Z</time>
      </trkpt>
      <trkpt lat="42.94086" lon="0.28972">
        <ele>1152</ele>
        <time>2019-01-26T09:19:07Z</time>
      </trkpt>
      <trkpt lat="42.94083" lon="0.28984">
        <ele>1152</ele>
        <time>2019-01-26T09:19:17Z</time>
      </trkpt>
      <trkpt lat="42.9408" lon="0.28996">
        <ele>1154</ele>
        <time>2019-01-26T09:19:28Z</time>
      </trkpt>
      <trkpt lat="42.94075" lon="0.29008">
        <ele>1155</ele>
        <time>2019-01-26T09:19:38Z</time>
      </trkpt>
      <trkpt lat="42.94073" lon="0.2902">
        <ele>1156</ele>
        <time>2019-01-26T09:19:48Z</time>
      </trkpt>
      <trkpt lat="42.9407" lon="0.29031">
        <ele>1156</ele>
        <time>2019-01-26T09:20:00Z</time>
      </trkpt>
      <trkpt lat="42.94072" lon="0.29044">
        <ele>1159</ele>
        <time>2019-01-26T09:20:12Z</time>
      </trkpt>
      <trkpt lat="42.94081" lon="0.29046">
        <ele>1160</ele>
        <time>2019-01-26T09:20:25Z</time>
      </trkpt>
      <trkpt lat="42.9409" lon="0.29041">
        <ele>1161</ele>
        <time>2019-01-26T09:20:35Z</time>
      </trkpt>
      <trkpt lat="42.94095" lon="0.2903">
        <ele>1161</ele>
        <time>2019-01-26T09:20:45Z</time>
      </trkpt>
      <trkpt lat="42.94101" lon="0.2902">
        <ele>1162</ele>
        <time>2019-01-26T09:20:55Z</time>
      </trkpt>
      <trkpt lat="42.94107" lon="0.2901">
        <ele>1162</ele>
        <time>2019-01-26T09:21:04Z</time>
      </trkpt>
      <trkpt lat="42.94115" lon="0.29003">
        <ele>1164</ele>
        <time>2019-01-26T09:21:16Z</time>
      </trkpt>
      <trkpt lat="42.94124" lon="0.29004">
        <ele>1164</ele>
        <time>2019-01-26T09:21:26Z</time>
      </trkpt>
      <trkpt lat="42.94135" lon="0.29005">
        <ele>1165</ele>
        <time>2019-01-26T09:21:33Z</time>
      </trkpt>
      <trkpt lat="42.94144" lon="0.29004">
        <ele>1166</ele>
        <time>2019-01-26T09:21:41Z</time>
      </trkpt>
      <trkpt lat="42.94153" lon="0.29006">
        <ele>1167</ele>
        <time>2019-01-26T09:21:50Z</time>
      </trkpt>
      <trkpt lat="42.94162" lon="0.29005">
        <ele>1168</ele>
        <time>2019-01-26T09:22:01Z</time>
      </trkpt>
      <trkpt lat="42.94172" lon="0.29008">
        <ele>1168</ele>
        <time>2019-01-26T09:22:09Z</time>
      </trkpt>
      <trkpt lat="42.94181" lon="0.29006">
        <ele>1169</ele>
        <time>2019-01-26T09:22:22Z</time>
      </trkpt>
      <trkpt lat="42.94191" lon="0.29007">
        <ele>1171</ele>
        <time>2019-01-26T09:22:28Z</time>
      </trkpt>
      <trkpt lat="42.942" lon="0.29003">
        <ele>1172</ele>
        <time>2019-01-26T09:22:41Z</time>
      </trkpt>
      <trkpt lat="42.9421" lon="0.29005">
        <ele>1172</ele>
        <time>2019-01-26T09:22:51Z</time>
      </trkpt>
      <trkpt lat="42.94219" lon="0.29003">
        <ele>1174</ele>
        <time>2019-01-26T09:23:02Z</time>
      </trkpt>
      <trkpt lat="42.94229" lon="0.29006">
        <ele>1175</ele>
        <time>2019-01-26T09:23:11Z</time>
      </trkpt>
      <trkpt lat="42.94238" lon="0.29009">
        <ele>1175</ele>
        <time>2019-01-26T09:23:18Z</time>
      </trkpt>
      <trkpt lat="42.94247" lon="0.29006">
        <ele>1176</ele>
        <time>2019-01-26T09:23:26Z</time>
      </trkpt>
      <trkpt lat="42.94257" lon="0.29008">
        <ele>1177</ele>
        <time>2019-01-26T09:23:37Z</time>
      </trkpt>
      <trkpt lat="42.94265" lon="0.29017">
        <ele>1177</ele>
        <time>2019-01-26T09:23:46Z</time>
      </trkpt>
      <trkpt lat="42.94269" lon="0.29029">
        <ele>1177</ele>
        <time>2019-01-26T09:23:54Z</time>
      </trkpt>
      <trkpt lat="42.94273" lon="0.29041">
        <ele>1178</ele>
        <time>2019-01-26T09:24:03Z</time>
      </trkpt>
      <trkpt lat="42.94266" lon="0.29052">
        <ele>1179</ele>
        <time>2019-01-26T09:24:13Z</time>
      </trkpt>
      <trkpt lat="42.94257" lon="0.29054">
        <ele>1180</ele>
        <time>2019-01-26T09:24:21Z</time>
      </trkpt>
      <trkpt lat="42.94247" lon="0.29054">
        <ele>1181</ele>
        <time>2019-01-26T09:24:29Z</time>
      </trkpt>
      <trkpt lat="42.94238" lon="0.29053">
        <ele>1181</ele>
        <time>2019-01-26T09:24:38Z</time>
      </trkpt>
      <trkpt lat="42.94228" lon="0.29051">
        <ele>1182</ele>
        <time>2019-01-26T09:24:43Z</time>
      </trkpt>
      <trkpt lat="42.94221" lon="0.29059">
        <ele>1183</ele>
        <time>2019-01-26T09:24:56Z</time>
      </trkpt>
      <trkpt lat="42.94212" lon="0.29062">
        <ele>1184</ele>
        <time>2019-01-26T09:25:07Z</time>
      </trkpt>
      <trkpt lat="42.94204" lon="0.29067">
        <ele>1185</ele>
        <time>2019-01-26T09:25:18Z</time>
      </trkpt>
      <trkpt lat="42.94196" lon="0.29075">
        <ele>1186</ele>
        <time>2019-01-26T09:25:30Z</time>
      </trkpt>
      <trkpt lat="42.94188" lon="0.2908">
        <ele>1188</ele>
        <time>2019-01-26T09:25:39Z</time>
      </trkpt>
      <trkpt lat="42.94181" lon="0.29089">
        <ele>1188</ele>
        <time>2019-01-26T09:25:48Z</time>
      </trkpt>
      <trkpt lat="42.94174" lon="0.29097">
        <ele>1189</ele>
        <time>2019-01-26T09:25:57Z</time>
      </trkpt>
      <trkpt lat="42.94166" lon="0.29105">
        <ele>1190</ele>
        <time>2019-01-26T09:26:06Z</time>
      </trkpt>
      <trkpt lat="42.94162" lon="0.29116">
        <ele>1192</ele>
        <time>2019-01-26T09:26:19Z</time>
      </trkpt>
      <trkpt lat="42.94155" lon="0.29123">
        <ele>1192</ele>
        <time>2019-01-26T09:26:29Z</time>
      </trkpt>
      <trkpt lat="42.94149" lon="0.29137">
        <ele>1193</ele>
        <time>2019-01-26T09:26:39Z</time>
      </trkpt>
      <trkpt lat="42.94144" lon="0.29149">
        <ele>1194</ele>
        <time>2019-01-26T09:26:49Z</time>
      </trkpt>
      <trkpt lat="42.94138" lon="0.29159">
        <ele>1195</ele>
        <time>2019-01-26T09:27:00Z</time>
      </trkpt>
      <trkpt lat="42.9413" lon="0.29165">
        <ele>1195</ele>
        <time>2019-01-26T09:27:06Z</time>
      </trkpt>
      <trkpt lat="42.94125" lon="0.29176">
        <ele>1196</ele>
        <time>2019-01-26T09:27:12Z</time>
      </trkpt>
      <trkpt lat="42.94121" lon="0.29188">
        <ele>1197</ele>
        <time>2019-01-26T09:27:24Z</time>
      </trkpt>
      <trkpt lat="42.94117" lon="0.292">
        <ele>1198</ele>
        <time>2019-01-26T09:27:36Z</time>
      </trkpt>
      <trkpt lat="42.94113" lon="0.29211">
        <ele>1199</ele>
        <time>2019-01-26T09:27:44Z</time>
      </trkpt>
      <trkpt lat="42.94104" lon="0.29219">
        <ele>1199</ele>
        <time>2019-01-26T09:27:52Z</time>
      </trkpt>
      <trkpt lat="42.941" lon="0.29229">
        <ele>1201</ele>
        <time>2019-01-26T09:28:03Z</time>
      </trkpt>
      <trkpt lat="42.94094" lon="0.29239">
        <ele>1202</ele>
        <time>2019-01-26T09:28:11Z</time>
      </trkpt>
      <trkpt lat="42.94088" lon="0.29249">
        <ele>1203</ele>
        <time>2019-01-26T09:28:21Z</time>
      </trkpt>
      <trkpt lat="42.94081" lon="0.29257">
        <ele>1203</ele>
        <time>2019-01-26T09:28:28Z</time>
      </trkpt>
      <trkpt lat="42.94074" lon="0.29267">
        <ele>1204</ele>
        <time>2019-01-26T09:28:35Z</time>
      </trkpt>
      <trkpt lat="42.94067" lon="0.29274">
        <ele>1204</ele>
        <time>2019-01-26T09:28:43Z</time>
      </trkpt>
      <trkpt lat="42.94059" lon="0.29281">
        <ele>1206</ele>
        <time>2019-01-26T09:28:53Z</time>
      </trkpt>
      <trkpt lat="42.94053" lon="0.29291">
        <ele>1206</ele>
        <time>2019-01-26T09:29:02Z</time>
      </trkpt>
      <trkpt lat="42.94048" lon="0.29301">
        <ele>1208</ele>
        <time>2019-01-26T09:29:17Z</time>
      </trkpt>
      <trkpt lat="42.94044" lon="0.29314">
        <ele>1209</ele>
        <time>2019-01-26T09:29:26Z</time>
      </trkpt>
      <trkpt lat="42.94043" lon="0.29326">
        <ele>1210</ele>
        <time>2019-01-26T09:29:35Z</time>
      </trkpt>
      <trkpt lat="42.94053" lon="0.29326">
        <ele>1211</ele>
        <time>2019-01-26T09:30:40Z</time>
      </trkpt>
      <trkpt lat="42.9406" lon="0.29317">
        <ele>1212</ele>
        <time>2019-01-26T09:30:51Z</time>
      </trkpt>
      <trkpt lat="42.94065" lon="0.29307">
        <ele>1212</ele>
        <time>2019-01-26T09:31:01Z</time>
      </trkpt>
      <trkpt lat="42.94072" lon="0.29297">
        <ele>1213</ele>
        <time>2019-01-26T09:31:10Z</time>
      </trkpt>
      <trkpt lat="42.94081" lon="0.2929">
        <ele>1214</ele>
        <time>2019-01-26T09:31:20Z</time>
      </trkpt>
      <trkpt lat="42.9409" lon="0.29286">
        <ele>1215</ele>
        <time>2019-01-26T09:31:31Z</time>
      </trkpt>
      <trkpt lat="42.94099" lon="0.29283">
        <ele>1216</ele>
        <time>2019-01-26T09:31:39Z</time>
      </trkpt>
      <trkpt lat="42.94108" lon="0.2928">
        <ele>1217</ele>
        <time>2019-01-26T09:31:49Z</time>
      </trkpt>
      <trkpt lat="42.94118" lon="0.29277">
        <ele>1218</ele>
        <time>2019-01-26T09:32:00Z</time>
      </trkpt>
      <trkpt lat="42.94126" lon="0.29269">
        <ele>1219</ele>
        <time>2019-01-26T09:32:07Z</time>
      </trkpt>
      <trkpt lat="42.94135" lon="0.29266">
        <ele>1221</ele>
        <time>2019-01-26T09:32:19Z</time>
      </trkpt>
      <trkpt lat="42.94143" lon="0.29263">
        <ele>1221</ele>
        <time>2019-01-26T09:32:24Z</time>
      </trkpt>
      <trkpt lat="42.94152" lon="0.29256">
        <ele>1222</ele>
        <time>2019-01-26T09:32:34Z</time>
      </trkpt>
      <trkpt lat="42.94161" lon="0.29253">
        <ele>1223</ele>
        <time>2019-01-26T09:32:42Z</time>
      </trkpt>
      <trkpt lat="42.9417" lon="0.29248">
        <ele>1223</ele>
        <time>2019-01-26T09:32:52Z</time>
      </trkpt>
      <trkpt lat="42.9418" lon="0.29248">
        <ele>1224</ele>
        <time>2019-01-26T09:33:04Z</time>
      </trkpt>
      <trkpt lat="42.94191" lon="0.29244">
        <ele>1224</ele>
        <time>2019-01-26T09:33:14Z</time>
      </trkpt>
      <trkpt lat="42.942" lon="0.29245">
        <ele>1226</ele>
        <time>2019-01-26T09:33:25Z</time>
      </trkpt>
      <trkpt lat="42.9421" lon="0.29243">
        <ele>1226</ele>
        <time>2019-01-26T09:33:34Z</time>
      </trkpt>
      <trkpt lat="42.94219" lon="0.2924">
        <ele>1227</ele>
        <time>2019-01-26T09:33:43Z</time>
      </trkpt>
      <trkpt lat="42.94228" lon="0.29238">
        <ele>1228</ele>
        <time>2019-01-26T09:33:51Z</time>
      </trkpt>
      <trkpt lat="42.94238" lon="0.29238">
        <ele>1229</ele>
        <time>2019-01-26T09:33:59Z</time>
      </trkpt>
      <trkpt lat="42.94246" lon="0.29246">
        <ele>1230</ele>
        <time>2019-01-26T09:34:09Z</time>
      </trkpt>
      <trkpt lat="42.94249" lon="0.29259">
        <ele>1231</ele>
        <time>2019-01-26T09:34:18Z</time>
      </trkpt>
      <trkpt lat="42.94249" lon="0.29271">
        <ele>1231</ele>
        <time>2019-01-26T09:34:26Z</time>
      </trkpt>
      <trkpt lat="42.94244" lon="0.29282">
        <ele>1231</ele>
        <time>2019-01-26T09:34:35Z</time>
      </trkpt>
      <trkpt lat="42.94237" lon="0.29292">
        <ele>1232</ele>
        <time>2019-01-26T09:34:57Z</time>
      </trkpt>
      <trkpt lat="42.94234" lon="0.293">
        <ele>1233</ele>
        <time>2019-01-26T09:37:47Z</time>
      </trkpt>
      <trkpt lat="42.94241" lon="0.29293">
        <ele>1233</ele>
        <time>2019-01-26T09:40:57Z</time>
      </trkpt>
      <trkpt lat="42.94241" lon="0.29306">
        <ele>1234</ele>
        <time>2019-01-26T09:41:22Z</time>
      </trkpt>
      <trkpt lat="42.94247" lon="0.29314">
        <ele>1234</ele>
        <time>2019-01-26T09:41:34Z</time>
      </trkpt>
      <trkpt lat="42.94246" lon="0.29328">
        <ele>1236</ele>
        <time>2019-01-26T09:41:49Z</time>
      </trkpt>
      <trkpt lat="42.94244" lon="0.2934">
        <ele>1237</ele>
        <time>2019-01-26T09:42:05Z</time>
      </trkpt>
      <trkpt lat="42.94235" lon="0.29346">
        <ele>1240</ele>
        <time>2019-01-26T09:42:24Z</time>
      </trkpt>
      <trkpt lat="42.9423" lon="0.29357">
        <ele>1241</ele>
        <time>2019-01-26T09:42:40Z</time>
      </trkpt>
      <trkpt lat="42.94224" lon="0.29366">
        <ele>1244</ele>
        <time>2019-01-26T09:42:58Z</time>
      </trkpt>
      <trkpt lat="42.9422" lon="0.29377">
        <ele>1246</ele>
        <time>2019-01-26T09:43:39Z</time>
      </trkpt>
      <trkpt lat="42.94211" lon="0.29382">
        <ele>1249</ele>
        <time>2019-01-26T09:43:57Z</time>
      </trkpt>
      <trkpt lat="42.94206" lon="0.29392">
        <ele>1253</ele>
        <time>2019-01-26T09:44:40Z</time>
      </trkpt>
      <trkpt lat="42.94203" lon="0.29404">
        <ele>1255</ele>
        <time>2019-01-26T09:44:52Z</time>
      </trkpt>
      <trkpt lat="42.94193" lon="0.29407">
        <ele>1256</ele>
        <time>2019-01-26T09:45:02Z</time>
      </trkpt>
      <trkpt lat="42.94202" lon="0.29403">
        <ele>1256</ele>
        <time>2019-01-26T09:45:20Z</time>
      </trkpt>
      <trkpt lat="42.94198" lon="0.29415">
        <ele>1256</ele>
        <time>2019-01-26T09:45:41Z</time>
      </trkpt>
      <trkpt lat="42.94202" lon="0.29426">
        <ele>1259</ele>
        <time>2019-01-26T09:45:52Z</time>
      </trkpt>
      <trkpt lat="42.94205" lon="0.29439">
        <ele>1262</ele>
        <time>2019-01-26T09:46:11Z</time>
      </trkpt>
      <trkpt lat="42.94212" lon="0.2945">
        <ele>1266</ele>
        <time>2019-01-26T09:46:41Z</time>
      </trkpt>
      <trkpt lat="42.94214" lon="0.29462">
        <ele>1270</ele>
        <time>2019-01-26T09:47:12Z</time>
      </trkpt>
      <trkpt lat="42.94216" lon="0.29478">
        <ele>1271</ele>
        <time>2019-01-26T09:47:25Z</time>
      </trkpt>
      <trkpt lat="42.94215" lon="0.29492">
        <ele>1279</ele>
        <time>2019-01-26T09:48:24Z</time>
      </trkpt>
      <trkpt lat="42.94219" lon="0.29502">
        <ele>1281</ele>
        <time>2019-01-26T09:48:44Z</time>
      </trkpt>
      <trkpt lat="42.94227" lon="0.2951">
        <ele>1286</ele>
        <time>2019-01-26T09:49:15Z</time>
      </trkpt>
      <trkpt lat="42.94227" lon="0.29523">
        <ele>1287</ele>
        <time>2019-01-26T09:49:36Z</time>
      </trkpt>
      <trkpt lat="42.94225" lon="0.2951">
        <ele>1288</ele>
        <time>2019-01-26T09:49:45Z</time>
      </trkpt>
      <trkpt lat="42.94227" lon="0.29522">
        <ele>1290</ele>
        <time>2019-01-26T09:50:01Z</time>
      </trkpt>
      <trkpt lat="42.94229" lon="0.29535">
        <ele>1293</ele>
        <time>2019-01-26T09:50:25Z</time>
      </trkpt>
      <trkpt lat="42.94225" lon="0.29547">
        <ele>1297</ele>
        <time>2019-01-26T09:50:58Z</time>
      </trkpt>
      <trkpt lat="42.94222" lon="0.2956">
        <ele>1301</ele>
        <time>2019-01-26T09:51:23Z</time>
      </trkpt>
      <trkpt lat="42.94227" lon="0.2957">
        <ele>1303</ele>
        <time>2019-01-26T09:51:42Z</time>
      </trkpt>
      <trkpt lat="42.94227" lon="0.29583">
        <ele>1307</ele>
        <time>2019-01-26T09:52:17Z</time>
      </trkpt>
      <trkpt lat="42.94227" lon="0.29596">
        <ele>1310</ele>
        <time>2019-01-26T09:52:42Z</time>
      </trkpt>
      <trkpt lat="42.94226" lon="0.29609">
        <ele>1315</ele>
        <time>2019-01-26T09:53:18Z</time>
      </trkpt>
      <trkpt lat="42.94236" lon="0.29612">
        <ele>1317</ele>
        <time>2019-01-26T09:54:55Z</time>
      </trkpt>
      <trkpt lat="42.94229" lon="0.29603">
        <ele>1318</ele>
        <time>2019-01-26T09:55:10Z</time>
      </trkpt>
      <trkpt lat="42.94229" lon="0.29616">
        <ele>1316</ele>
        <time>2019-01-26T09:58:19Z</time>
      </trkpt>
      <trkpt lat="42.94232" lon="0.29628">
        <ele>1319</ele>
        <time>2019-01-26T09:58:51Z</time>
      </trkpt>
      <trkpt lat="42.94231" lon="0.2964">
        <ele>1322</ele>
        <time>2019-01-26T09:59:16Z</time>
      </trkpt>
      <trkpt lat="42.94229" lon="0.29654">
        <ele>1326</ele>
        <time>2019-01-26T09:59:37Z</time>
      </trkpt>
      <trkpt lat="42.94226" lon="0.29667">
        <ele>1330</ele>
        <time>2019-01-26T10:00:07Z</time>
      </trkpt>
      <trkpt lat="42.94225" lon="0.29679">
        <ele>1333.7</ele>
        <time>2019-01-26T10:00:24Z</time>
      </trkpt>
      <trkpt lat="42.94221" lon="0.2969">
        <ele>1336</ele>
        <time>2019-01-26T10:01:00Z</time>
      </trkpt>
      <trkpt lat="42.94216" lon="0.29701">
        <ele>1338</ele>
        <time>2019-01-26T10:01:17Z</time>
      </trkpt>
      <trkpt lat="42.94212" lon="0.29713">
        <ele>1340</ele>
        <time>2019-01-26T10:01:42Z</time>
      </trkpt>
      <trkpt lat="42.94207" lon="0.29723">
        <ele>1342</ele>
        <time>2019-01-26T10:02:01Z</time>
      </trkpt>
      <trkpt lat="42.94205" lon="0.29735">
        <ele>1344</ele>
        <time>2019-01-26T10:02:19Z</time>
      </trkpt>
      <trkpt lat="42.94205" lon="0.29748">
        <ele>1348</ele>
        <time>2019-01-26T10:02:40Z</time>
      </trkpt>
      <trkpt lat="42.942" lon="0.29759">
        <ele>1348</ele>
        <time>2019-01-26T10:02:55Z</time>
      </trkpt>
      <trkpt lat="42.94198" lon="0.29771">
        <ele>1352</ele>
        <time>2019-01-26T10:03:21Z</time>
      </trkpt>
      <trkpt lat="42.94191" lon="0.2978">
        <ele>1353</ele>
        <time>2019-01-26T10:03:32Z</time>
      </trkpt>
      <trkpt lat="42.94188" lon="0.29794">
        <ele>1354</ele>
        <time>2019-01-26T10:03:50Z</time>
      </trkpt>
      <trkpt lat="42.94197" lon="0.29796">
        <ele>1356</ele>
        <time>2019-01-26T10:04:01Z</time>
      </trkpt>
      <trkpt lat="42.94196" lon="0.29809">
        <ele>1357</ele>
        <time>2019-01-26T10:04:16Z</time>
      </trkpt>
      <trkpt lat="42.9419" lon="0.29821">
        <ele>1358</ele>
        <time>2019-01-26T10:04:27Z</time>
      </trkpt>
      <trkpt lat="42.9419" lon="0.29835">
        <ele>1359</ele>
        <time>2019-01-26T10:04:52Z</time>
      </trkpt>
      <trkpt lat="42.94191" lon="0.29847">
        <ele>1359</ele>
        <time>2019-01-26T10:05:17Z</time>
      </trkpt>
      <trkpt lat="42.94186" lon="0.29858">
        <ele>1360</ele>
        <time>2019-01-26T10:05:27Z</time>
      </trkpt>
      <trkpt lat="42.94186" lon="0.29871">
        <ele>1360</ele>
        <time>2019-01-26T10:05:38Z</time>
      </trkpt>
      <trkpt lat="42.94181" lon="0.29881">
        <ele>1361</ele>
        <time>2019-01-26T10:06:02Z</time>
      </trkpt>
      <trkpt lat="42.94186" lon="0.29892">
        <ele>1362</ele>
        <time>2019-01-26T10:06:16Z</time>
      </trkpt>
      <trkpt lat="42.94196" lon="0.29892">
        <ele>1363</ele>
        <time>2019-01-26T10:06:30Z</time>
      </trkpt>
      <trkpt lat="42.94199" lon="0.29903">
        <ele>1364</ele>
        <time>2019-01-26T10:06:36Z</time>
      </trkpt>
      <trkpt lat="42.94207" lon="0.2991">
        <ele>1365</ele>
        <time>2019-01-26T10:06:48Z</time>
      </trkpt>
      <trkpt lat="42.94208" lon="0.29923">
        <ele>1367</ele>
        <time>2019-01-26T10:07:05Z</time>
      </trkpt>
      <trkpt lat="42.94203" lon="0.29933">
        <ele>1368</ele>
        <time>2019-01-26T10:07:17Z</time>
      </trkpt>
      <trkpt lat="42.94205" lon="0.29945">
        <ele>1370</ele>
        <time>2019-01-26T10:07:40Z</time>
      </trkpt>
      <trkpt lat="42.94205" lon="0.29958">
        <ele>1371.9</ele>
        <time>2019-01-26T10:07:59Z</time>
      </trkpt>
      <trkpt lat="42.9421" lon="0.29968">
        <ele>1373</ele>
        <time>2019-01-26T10:08:10Z</time>
      </trkpt>
      <trkpt lat="42.94213" lon="0.2998">
        <ele>1377</ele>
        <time>2019-01-26T10:08:43Z</time>
      </trkpt>
      <trkpt lat="42.9421" lon="0.29992">
        <ele>1377</ele>
        <time>2019-01-26T10:08:55Z</time>
      </trkpt>
      <trkpt lat="42.94212" lon="0.30004">
        <ele>1378</ele>
        <time>2019-01-26T10:09:06Z</time>
      </trkpt>
      <trkpt lat="42.94221" lon="0.30008">
        <ele>1378</ele>
        <time>2019-01-26T10:09:17Z</time>
      </trkpt>
      <trkpt lat="42.94227" lon="0.30019">
        <ele>1381</ele>
        <time>2019-01-26T10:09:37Z</time>
      </trkpt>
      <trkpt lat="42.94236" lon="0.30013">
        <ele>1381</ele>
        <time>2019-01-26T10:09:42Z</time>
      </trkpt>
      <trkpt lat="42.94232" lon="0.30024">
        <ele>1384</ele>
        <time>2019-01-26T10:10:04Z</time>
      </trkpt>
      <trkpt lat="42.94225" lon="0.30032">
        <ele>1384</ele>
        <time>2019-01-26T10:11:37Z</time>
      </trkpt>
      <trkpt lat="42.94215" lon="0.30033">
        <ele>1385</ele>
        <time>2019-01-26T10:11:54Z</time>
      </trkpt>
      <trkpt lat="42.94218" lon="0.3001">
        <ele>1384</ele>
        <time>2019-01-26T10:12:09Z</time>
      </trkpt>
      <trkpt lat="42.94221" lon="0.29998">
        <ele>1384</ele>
        <time>2019-01-26T10:12:12Z</time>
      </trkpt>
      <trkpt lat="42.94232" lon="0.30009">
        <ele>1384</ele>
        <time>2019-01-26T10:12:47Z</time>
      </trkpt>
      <trkpt lat="42.94242" lon="0.30007">
        <ele>1384</ele>
        <time>2019-01-26T10:12:58Z</time>
      </trkpt>
      <trkpt lat="42.94235" lon="0.30016">
        <ele>1384</ele>
        <time>2019-01-26T10:13:08Z</time>
      </trkpt>
      <trkpt lat="42.94227" lon="0.30023">
        <ele>1384</ele>
        <time>2019-01-26T10:14:11Z</time>
      </trkpt>
      <trkpt lat="42.94237" lon="0.30023">
        <ele>1385</ele>
        <time>2019-01-26T10:14:25Z</time>
      </trkpt>
      <trkpt lat="42.94237" lon="0.30035">
        <ele>1387</ele>
        <time>2019-01-26T10:14:53Z</time>
      </trkpt>
      <trkpt lat="42.94239" lon="0.30049">
        <ele>1390</ele>
        <time>2019-01-26T10:15:12Z</time>
      </trkpt>
      <trkpt lat="42.94244" lon="0.30059">
        <ele>1393</ele>
        <time>2019-01-26T10:15:32Z</time>
      </trkpt>
      <trkpt lat="42.94253" lon="0.30064">
        <ele>1395</ele>
        <time>2019-01-26T10:15:45Z</time>
      </trkpt>
      <trkpt lat="42.94259" lon="0.30073">
        <ele>1396</ele>
        <time>2019-01-26T10:15:57Z</time>
      </trkpt>
      <trkpt lat="42.94254" lon="0.30084">
        <ele>1398</ele>
        <time>2019-01-26T10:16:24Z</time>
      </trkpt>
      <trkpt lat="42.94252" lon="0.30097">
        <ele>1400</ele>
        <time>2019-01-26T10:16:42Z</time>
      </trkpt>
      <trkpt lat="42.94245" lon="0.30104">
        <ele>1401</ele>
        <time>2019-01-26T10:17:13Z</time>
      </trkpt>
      <trkpt lat="42.94243" lon="0.30116">
        <ele>1402</ele>
        <time>2019-01-26T10:18:08Z</time>
      </trkpt>
      <trkpt lat="42.94244" lon="0.30129">
        <ele>1402</ele>
        <time>2019-01-26T10:18:18Z</time>
      </trkpt>
      <trkpt lat="42.94246" lon="0.30141">
        <ele>1403</ele>
        <time>2019-01-26T10:18:37Z</time>
      </trkpt>
      <trkpt lat="42.94243" lon="0.30154">
        <ele>1404</ele>
        <time>2019-01-26T10:18:57Z</time>
      </trkpt>
      <trkpt lat="42.94245" lon="0.30167">
        <ele>1404</ele>
        <time>2019-01-26T10:19:14Z</time>
      </trkpt>
      <trkpt lat="42.94249" lon="0.3018">
        <ele>1406</ele>
        <time>2019-01-26T10:19:31Z</time>
      </trkpt>
      <trkpt lat="42.94248" lon="0.30192">
        <ele>1406</ele>
        <time>2019-01-26T10:19:42Z</time>
      </trkpt>
      <trkpt lat="42.94256" lon="0.30198">
        <ele>1409</ele>
        <time>2019-01-26T10:20:19Z</time>
      </trkpt>
      <trkpt lat="42.94265" lon="0.30196">
        <ele>1411</ele>
        <time>2019-01-26T10:20:38Z</time>
      </trkpt>
      <trkpt lat="42.94274" lon="0.302">
        <ele>1413</ele>
        <time>2019-01-26T10:20:54Z</time>
      </trkpt>
      <trkpt lat="42.94276" lon="0.30213">
        <ele>1416</ele>
        <time>2019-01-26T10:21:22Z</time>
      </trkpt>
      <trkpt lat="42.94283" lon="0.30221">
        <ele>1418</ele>
        <time>2019-01-26T10:21:38Z</time>
      </trkpt>
      <trkpt lat="42.94293" lon="0.30241">
        <ele>1422</ele>
        <time>2019-01-26T10:22:17Z</time>
      </trkpt>
      <trkpt lat="42.94298" lon="0.30251">
        <ele>1425</ele>
        <time>2019-01-26T10:22:38Z</time>
      </trkpt>
      <trkpt lat="42.94305" lon="0.30259">
        <ele>1426</ele>
        <time>2019-01-26T10:23:07Z</time>
      </trkpt>
      <trkpt lat="42.94312" lon="0.30268">
        <ele>1428</ele>
        <time>2019-01-26T10:23:26Z</time>
      </trkpt>
      <trkpt lat="42.94321" lon="0.30272">
        <ele>1431</ele>
        <time>2019-01-26T10:23:55Z</time>
      </trkpt>
      <trkpt lat="42.9433" lon="0.30266">
        <ele>1433</ele>
        <time>2019-01-26T10:24:18Z</time>
      </trkpt>
      <trkpt lat="42.9434" lon="0.30269">
        <ele>1434</ele>
        <time>2019-01-26T10:24:27Z</time>
      </trkpt>
      <trkpt lat="42.94349" lon="0.30271">
        <ele>1437</ele>
        <time>2019-01-26T10:24:52Z</time>
      </trkpt>
      <trkpt lat="42.94357" lon="0.30279">
        <ele>1439</ele>
        <time>2019-01-26T10:25:17Z</time>
      </trkpt>
      <trkpt lat="42.94366" lon="0.30277">
        <ele>1442</ele>
        <time>2019-01-26T10:25:42Z</time>
      </trkpt>
      <trkpt lat="42.94375" lon="0.30278">
        <ele>1444</ele>
        <time>2019-01-26T10:25:55Z</time>
      </trkpt>
      <trkpt lat="42.94383" lon="0.30284">
        <ele>1446</ele>
        <time>2019-01-26T10:26:15Z</time>
      </trkpt>
      <trkpt lat="42.94389" lon="0.30294">
        <ele>1446</ele>
        <time>2019-01-26T10:26:28Z</time>
      </trkpt>
      <trkpt lat="42.94397" lon="0.303">
        <ele>1448</ele>
        <time>2019-01-26T10:26:46Z</time>
      </trkpt>
      <trkpt lat="42.94405" lon="0.30306">
        <ele>1449</ele>
        <time>2019-01-26T10:26:58Z</time>
      </trkpt>
      <trkpt lat="42.94414" lon="0.30313">
        <ele>1450</ele>
        <time>2019-01-26T10:27:17Z</time>
      </trkpt>
      <trkpt lat="42.94422" lon="0.3032">
        <ele>1452</ele>
        <time>2019-01-26T10:27:26Z</time>
      </trkpt>
      <trkpt lat="42.94433" lon="0.30322">
        <ele>1452</ele>
        <time>2019-01-26T10:27:41Z</time>
      </trkpt>
      <trkpt lat="42.94443" lon="0.30323">
        <ele>1453</ele>
        <time>2019-01-26T10:27:55Z</time>
      </trkpt>
      <trkpt lat="42.94434" lon="0.30324">
        <ele>1453</ele>
        <time>2019-01-26T10:28:34Z</time>
      </trkpt>
      <trkpt lat="42.94425" lon="0.30329">
        <ele>1452</ele>
        <time>2019-01-26T10:29:17Z</time>
      </trkpt>
      <trkpt lat="42.94434" lon="0.30325">
        <ele>1453</ele>
        <time>2019-01-26T10:30:03Z</time>
      </trkpt>
      <trkpt lat="42.94433" lon="0.30313">
        <ele>1453</ele>
        <time>2019-01-26T10:32:16Z</time>
      </trkpt>
      <trkpt lat="42.94436" lon="0.30325">
        <ele>1453</ele>
        <time>2019-01-26T10:33:22Z</time>
      </trkpt>
      <trkpt lat="42.94441" lon="0.30336">
        <ele>1452</ele>
        <time>2019-01-26T10:33:51Z</time>
      </trkpt>
      <trkpt lat="42.9445" lon="0.30344">
        <ele>1450</ele>
        <time>2019-01-26T10:34:01Z</time>
      </trkpt>
      <trkpt lat="42.94455" lon="0.30355">
        <ele>1450</ele>
        <time>2019-01-26T10:34:10Z</time>
      </trkpt>
      <trkpt lat="42.94461" lon="0.30365">
        <ele>1450</ele>
        <time>2019-01-26T10:34:19Z</time>
      </trkpt>
      <trkpt lat="42.94469" lon="0.30373">
        <ele>1450</ele>
        <time>2019-01-26T10:34:32Z</time>
      </trkpt>
      <trkpt lat="42.94471" lon="0.30385">
        <ele>1449</ele>
        <time>2019-01-26T10:34:44Z</time>
      </trkpt>
      <trkpt lat="42.94476" lon="0.30396">
        <ele>1447</ele>
        <time>2019-01-26T10:35:02Z</time>
      </trkpt>
      <trkpt lat="42.9448" lon="0.30408">
        <ele>1447</ele>
        <time>2019-01-26T10:35:22Z</time>
      </trkpt>
      <trkpt lat="42.94485" lon="0.30419">
        <ele>1447</ele>
        <time>2019-01-26T10:35:37Z</time>
      </trkpt>
      <trkpt lat="42.94491" lon="0.30431">
        <ele>1445</ele>
        <time>2019-01-26T10:35:48Z</time>
      </trkpt>
      <trkpt lat="42.94495" lon="0.30442">
        <ele>1443</ele>
        <time>2019-01-26T10:35:58Z</time>
      </trkpt>
      <trkpt lat="42.94501" lon="0.30452">
        <ele>1442</ele>
        <time>2019-01-26T10:36:10Z</time>
      </trkpt>
      <trkpt lat="42.94506" lon="0.30463">
        <ele>1440</ele>
        <time>2019-01-26T10:37:01Z</time>
      </trkpt>
      <trkpt lat="42.9451" lon="0.30474">
        <ele>1440</ele>
        <time>2019-01-26T10:37:12Z</time>
      </trkpt>
      <trkpt lat="42.94514" lon="0.30486">
        <ele>1441</ele>
        <time>2019-01-26T10:37:24Z</time>
      </trkpt>
      <trkpt lat="42.94519" lon="0.30496">
        <ele>1441</ele>
        <time>2019-01-26T10:37:34Z</time>
      </trkpt>
      <trkpt lat="42.94523" lon="0.30508">
        <ele>1442</ele>
        <time>2019-01-26T10:37:44Z</time>
      </trkpt>
      <trkpt lat="42.94527" lon="0.30521">
        <ele>1442</ele>
        <time>2019-01-26T10:37:55Z</time>
      </trkpt>
      <trkpt lat="42.94528" lon="0.30534">
        <ele>1443</ele>
        <time>2019-01-26T10:38:04Z</time>
      </trkpt>
      <trkpt lat="42.94529" lon="0.30547">
        <ele>1445</ele>
        <time>2019-01-26T10:38:14Z</time>
      </trkpt>
      <trkpt lat="42.94531" lon="0.30559">
        <ele>1446</ele>
        <time>2019-01-26T10:38:27Z</time>
      </trkpt>
      <trkpt lat="42.9453" lon="0.30572">
        <ele>1447</ele>
        <time>2019-01-26T10:38:36Z</time>
      </trkpt>
      <trkpt lat="42.94532" lon="0.30584">
        <ele>1449</ele>
        <time>2019-01-26T10:39:49Z</time>
      </trkpt>
      <trkpt lat="42.94531" lon="0.30597">
        <ele>1450</ele>
        <time>2019-01-26T10:40:28Z</time>
      </trkpt>
      <trkpt lat="42.94532" lon="0.30611">
        <ele>1450</ele>
        <time>2019-01-26T10:40:40Z</time>
      </trkpt>
      <trkpt lat="42.94537" lon="0.30622">
        <ele>1454</ele>
        <time>2019-01-26T10:41:07Z</time>
      </trkpt>
      <trkpt lat="42.94535" lon="0.30635">
        <ele>1454</ele>
        <time>2019-01-26T10:41:17Z</time>
      </trkpt>
      <trkpt lat="42.94534" lon="0.30648">
        <ele>1456</ele>
        <time>2019-01-26T10:41:33Z</time>
      </trkpt>
      <trkpt lat="42.94532" lon="0.30672">
        <ele>1458</ele>
        <time>2019-01-26T10:42:01Z</time>
      </trkpt>
      <trkpt lat="42.94532" lon="0.30686">
        <ele>1459</ele>
        <time>2019-01-26T10:42:20Z</time>
      </trkpt>
      <trkpt lat="42.9453" lon="0.30699">
        <ele>1461</ele>
        <time>2019-01-26T10:42:34Z</time>
      </trkpt>
      <trkpt lat="42.9453" lon="0.30712">
        <ele>1462</ele>
        <time>2019-01-26T10:42:54Z</time>
      </trkpt>
      <trkpt lat="42.94529" lon="0.30724">
        <ele>1463</ele>
        <time>2019-01-26T10:43:08Z</time>
      </trkpt>
      <trkpt lat="42.9453" lon="0.30737">
        <ele>1464.7</ele>
        <time>2019-01-26T10:43:46Z</time>
      </trkpt>
      <trkpt lat="42.9453" lon="0.30755">
        <ele>1467</ele>
        <time>2019-01-26T10:45:48Z</time>
      </trkpt>
      <trkpt lat="42.94538" lon="0.30761">
        <ele>1470</ele>
        <time>2019-01-26T10:46:15Z</time>
      </trkpt>
      <trkpt lat="42.94541" lon="0.30773">
        <ele>1473</ele>
        <time>2019-01-26T10:46:49Z</time>
      </trkpt>
      <trkpt lat="42.94551" lon="0.30773">
        <ele>1477</ele>
        <time>2019-01-26T10:47:08Z</time>
      </trkpt>
      <trkpt lat="42.9456" lon="0.30777">
        <ele>1481</ele>
        <time>2019-01-26T10:47:29Z</time>
      </trkpt>
      <trkpt lat="42.94568" lon="0.30785">
        <ele>1483</ele>
        <time>2019-01-26T10:47:52Z</time>
      </trkpt>
      <trkpt lat="42.94577" lon="0.30785">
        <ele>1486</ele>
        <time>2019-01-26T10:48:11Z</time>
      </trkpt>
      <trkpt lat="42.94584" lon="0.30792">
        <ele>1489</ele>
        <time>2019-01-26T10:48:32Z</time>
      </trkpt>
      <trkpt lat="42.94593" lon="0.30796">
        <ele>1492</ele>
        <time>2019-01-26T10:48:53Z</time>
      </trkpt>
      <trkpt lat="42.94594" lon="0.30808">
        <ele>1493</ele>
        <time>2019-01-26T10:49:09Z</time>
      </trkpt>
      <trkpt lat="42.94602" lon="0.30814">
        <ele>1497</ele>
        <time>2019-01-26T10:49:35Z</time>
      </trkpt>
      <trkpt lat="42.94612" lon="0.30817">
        <ele>1499</ele>
        <time>2019-01-26T10:49:52Z</time>
      </trkpt>
      <trkpt lat="42.94621" lon="0.3082">
        <ele>1501</ele>
        <time>2019-01-26T10:50:19Z</time>
      </trkpt>
      <trkpt lat="42.9463" lon="0.30819">
        <ele>1505</ele>
        <time>2019-01-26T10:50:44Z</time>
      </trkpt>
      <trkpt lat="42.94637" lon="0.3084">
        <ele>1511</ele>
        <time>2019-01-26T10:51:35Z</time>
      </trkpt>
      <trkpt lat="42.94643" lon="0.30829">
        <ele>1511</ele>
        <time>2019-01-26T10:53:25Z</time>
      </trkpt>
      <trkpt lat="42.94639" lon="0.30841">
        <ele>1511</ele>
        <time>2019-01-26T10:54:13Z</time>
      </trkpt>
      <trkpt lat="42.9464" lon="0.30854">
        <ele>1512</ele>
        <time>2019-01-26T10:54:35Z</time>
      </trkpt>
      <trkpt lat="42.94646" lon="0.30863">
        <ele>1515</ele>
        <time>2019-01-26T10:54:53Z</time>
      </trkpt>
      <trkpt lat="42.94655" lon="0.30865">
        <ele>1518</ele>
        <time>2019-01-26T10:55:16Z</time>
      </trkpt>
      <trkpt lat="42.94663" lon="0.30873">
        <ele>1520</ele>
        <time>2019-01-26T10:55:39Z</time>
      </trkpt>
      <trkpt lat="42.94668" lon="0.30884">
        <ele>1523</ele>
        <time>2019-01-26T10:56:04Z</time>
      </trkpt>
      <trkpt lat="42.94673" lon="0.30894">
        <ele>1526</ele>
        <time>2019-01-26T10:56:22Z</time>
      </trkpt>
      <trkpt lat="42.94682" lon="0.30893">
        <ele>1529</ele>
        <time>2019-01-26T10:56:48Z</time>
      </trkpt>
      <trkpt lat="42.94688" lon="0.30903">
        <ele>1532</ele>
        <time>2019-01-26T10:57:13Z</time>
      </trkpt>
      <trkpt lat="42.94695" lon="0.30911">
        <ele>1534</ele>
        <time>2019-01-26T10:57:35Z</time>
      </trkpt>
      <trkpt lat="42.94703" lon="0.30918">
        <ele>1539</ele>
        <time>2019-01-26T10:58:05Z</time>
      </trkpt>
      <trkpt lat="42.94708" lon="0.30928">
        <ele>1544</ele>
        <time>2019-01-26T10:58:35Z</time>
      </trkpt>
      <trkpt lat="42.94717" lon="0.30934">
        <ele>1546</ele>
        <time>2019-01-26T10:59:04Z</time>
      </trkpt>
      <trkpt lat="42.94722" lon="0.30944">
        <ele>1550</ele>
        <time>2019-01-26T10:59:26Z</time>
      </trkpt>
      <trkpt lat="42.94726" lon="0.30955">
        <ele>1554</ele>
        <time>2019-01-26T10:59:50Z</time>
      </trkpt>
      <trkpt lat="42.94734" lon="0.30961">
        <ele>1557</ele>
        <time>2019-01-26T11:00:19Z</time>
      </trkpt>
      <trkpt lat="42.94736" lon="0.30974">
        <ele>1560</ele>
        <time>2019-01-26T11:00:38Z</time>
      </trkpt>
      <trkpt lat="42.94743" lon="0.30982">
        <ele>1563</ele>
        <time>2019-01-26T11:01:06Z</time>
      </trkpt>
      <trkpt lat="42.94749" lon="0.30991">
        <ele>1569</ele>
        <time>2019-01-26T11:01:48Z</time>
      </trkpt>
      <trkpt lat="42.94755" lon="0.31001">
        <ele>1572</ele>
        <time>2019-01-26T11:02:12Z</time>
      </trkpt>
      <trkpt lat="42.94755" lon="0.31013">
        <ele>1577</ele>
        <time>2019-01-26T11:02:38Z</time>
      </trkpt>
      <trkpt lat="42.94756" lon="0.31026">
        <ele>1579</ele>
        <time>2019-01-26T11:03:06Z</time>
      </trkpt>
      <trkpt lat="42.94756" lon="0.31038">
        <ele>1583</ele>
        <time>2019-01-26T11:03:38Z</time>
      </trkpt>
      <trkpt lat="42.94765" lon="0.31044">
        <ele>1587</ele>
        <time>2019-01-26T11:04:05Z</time>
      </trkpt>
      <trkpt lat="42.9477" lon="0.31054">
        <ele>1591</ele>
        <time>2019-01-26T11:04:38Z</time>
      </trkpt>
      <trkpt lat="42.94779" lon="0.31056">
        <ele>1597</ele>
        <time>2019-01-26T11:05:48Z</time>
      </trkpt>
      <trkpt lat="42.94788" lon="0.31058">
        <ele>1600</ele>
        <time>2019-01-26T11:06:07Z</time>
      </trkpt>
      <trkpt lat="42.94794" lon="0.31067">
        <ele>1606</ele>
        <time>2019-01-26T11:06:42Z</time>
      </trkpt>
      <trkpt lat="42.94799" lon="0.31077">
        <ele>1609</ele>
        <time>2019-01-26T11:07:03Z</time>
      </trkpt>
      <trkpt lat="42.94806" lon="0.31085">
        <ele>1613</ele>
        <time>2019-01-26T11:07:44Z</time>
      </trkpt>
      <trkpt lat="42.94821" lon="0.31098">
        <ele>1620</ele>
        <time>2019-01-26T11:08:30Z</time>
      </trkpt>
      <trkpt lat="42.9483" lon="0.31101">
        <ele>1624</ele>
        <time>2019-01-26T11:09:10Z</time>
      </trkpt>
      <trkpt lat="42.94835" lon="0.31112">
        <ele>1629</ele>
        <time>2019-01-26T11:09:40Z</time>
      </trkpt>
      <trkpt lat="42.94842" lon="0.3112">
        <ele>1633</ele>
        <time>2019-01-26T11:10:07Z</time>
      </trkpt>
      <trkpt lat="42.94851" lon="0.31126">
        <ele>1636.9</ele>
        <time>2019-01-26T11:10:26Z</time>
      </trkpt>
      <trkpt lat="42.94858" lon="0.31135">
        <ele>1637</ele>
        <time>2019-01-26T11:10:39Z</time>
      </trkpt>
      <trkpt lat="42.94859" lon="0.31148">
        <ele>1638</ele>
        <time>2019-01-26T11:10:55Z</time>
      </trkpt>
      <trkpt lat="42.94859" lon="0.31161">
        <ele>1638</ele>
        <time>2019-01-26T11:11:08Z</time>
      </trkpt>
      <trkpt lat="42.94864" lon="0.31173">
        <ele>1639</ele>
        <time>2019-01-26T11:11:26Z</time>
      </trkpt>
      <trkpt lat="42.94865" lon="0.31186">
        <ele>1638</ele>
        <time>2019-01-26T11:21:30Z</time>
      </trkpt>
      <trkpt lat="42.94873" lon="0.31193">
        <ele>1638</ele>
        <time>2019-01-26T11:25:58Z</time>
      </trkpt>
      <trkpt lat="42.94879" lon="0.31203">
        <ele>1640</ele>
        <time>2019-01-26T11:26:14Z</time>
      </trkpt>
      <trkpt lat="42.94887" lon="0.31209">
        <ele>1641</ele>
        <time>2019-01-26T11:27:00Z</time>
      </trkpt>
      <trkpt lat="42.94896" lon="0.31215">
        <ele>1643</ele>
        <time>2019-01-26T11:27:15Z</time>
      </trkpt>
      <trkpt lat="42.94902" lon="0.31223">
        <ele>1642.9</ele>
        <time>2019-01-26T11:27:32Z</time>
      </trkpt>
      <trkpt lat="42.94906" lon="0.31234">
        <ele>1644</ele>
        <time>2019-01-26T11:27:46Z</time>
      </trkpt>
      <trkpt lat="42.94913" lon="0.31245">
        <ele>1645</ele>
        <time>2019-01-26T11:27:59Z</time>
      </trkpt>
      <trkpt lat="42.94918" lon="0.31255">
        <ele>1648</ele>
        <time>2019-01-26T11:28:51Z</time>
      </trkpt>
      <trkpt lat="42.94924" lon="0.31265">
        <ele>1650</ele>
        <time>2019-01-26T11:29:02Z</time>
      </trkpt>
      <trkpt lat="42.9493" lon="0.31276">
        <ele>1652</ele>
        <time>2019-01-26T11:29:22Z</time>
      </trkpt>
      <trkpt lat="42.94937" lon="0.31284">
        <ele>1654</ele>
        <time>2019-01-26T11:29:34Z</time>
      </trkpt>
      <trkpt lat="42.94943" lon="0.31293">
        <ele>1656</ele>
        <time>2019-01-26T11:29:48Z</time>
      </trkpt>
      <trkpt lat="42.9495" lon="0.31302">
        <ele>1658</ele>
        <time>2019-01-26T11:30:02Z</time>
      </trkpt>
      <trkpt lat="42.94957" lon="0.3131">
        <ele>1659</ele>
        <time>2019-01-26T11:30:19Z</time>
      </trkpt>
      <trkpt lat="42.9496" lon="0.31322">
        <ele>1659.9</ele>
        <time>2019-01-26T11:30:27Z</time>
      </trkpt>
      <trkpt lat="42.94969" lon="0.3133">
        <ele>1661</ele>
        <time>2019-01-26T11:30:39Z</time>
      </trkpt>
      <trkpt lat="42.94975" lon="0.31339">
        <ele>1663</ele>
        <time>2019-01-26T11:30:56Z</time>
      </trkpt>
      <trkpt lat="42.94979" lon="0.3135">
        <ele>1666</ele>
        <time>2019-01-26T11:31:14Z</time>
      </trkpt>
      <trkpt lat="42.94988" lon="0.31356">
        <ele>1668</ele>
        <time>2019-01-26T11:31:40Z</time>
      </trkpt>
      <trkpt lat="42.94996" lon="0.31362">
        <ele>1671</ele>
        <time>2019-01-26T11:35:30Z</time>
      </trkpt>
      <trkpt lat="42.95003" lon="0.3137">
        <ele>1675</ele>
        <time>2019-01-26T11:35:50Z</time>
      </trkpt>
      <trkpt lat="42.95012" lon="0.31373">
        <ele>1677</ele>
        <time>2019-01-26T11:36:04Z</time>
      </trkpt>
      <trkpt lat="42.9502" lon="0.3138">
        <ele>1680</ele>
        <time>2019-01-26T11:36:21Z</time>
      </trkpt>
      <trkpt lat="42.95024" lon="0.31391">
        <ele>1681</ele>
        <time>2019-01-26T11:36:35Z</time>
      </trkpt>
      <trkpt lat="42.95034" lon="0.31391">
        <ele>1682</ele>
        <time>2019-01-26T11:36:48Z</time>
      </trkpt>
      <trkpt lat="42.95043" lon="0.31392">
        <ele>1685</ele>
        <time>2019-01-26T11:37:12Z</time>
      </trkpt>
      <trkpt lat="42.95052" lon="0.31397">
        <ele>1687</ele>
        <time>2019-01-26T11:37:27Z</time>
      </trkpt>
      <trkpt lat="42.95056" lon="0.31408">
        <ele>1689</ele>
        <time>2019-01-26T11:37:49Z</time>
      </trkpt>
      <trkpt lat="42.95058" lon="0.31422">
        <ele>1689</ele>
        <time>2019-01-26T11:38:06Z</time>
      </trkpt>
      <trkpt lat="42.95064" lon="0.31432">
        <ele>1690</ele>
        <time>2019-01-26T11:38:23Z</time>
      </trkpt>
      <trkpt lat="42.95062" lon="0.31446">
        <ele>1694</ele>
        <time>2019-01-26T11:42:55Z</time>
      </trkpt>
      <trkpt lat="42.95058" lon="0.31435">
        <ele>1694</ele>
        <time>2019-01-26T11:43:43Z</time>
      </trkpt>
      <trkpt lat="42.95065" lon="0.31444">
        <ele>1694</ele>
        <time>2019-01-26T11:44:08Z</time>
      </trkpt>
      <trkpt lat="42.95056" lon="0.31446">
        <ele>1695</ele>
        <time>2019-01-26T11:45:58Z</time>
      </trkpt>
      <trkpt lat="42.95065" lon="0.31449">
        <ele>1693</ele>
        <time>2019-01-26T11:50:04Z</time>
      </trkpt>
      <trkpt lat="42.95065" lon="0.31449">
        <ele>1686</ele>
        <time>2019-01-26T12:34:04Z</time>
      </trkpt>
      <trkpt lat="42.9506" lon="0.31439">
        <ele>1688</ele>
        <time>2019-01-26T12:36:43Z</time>
      </trkpt>
      <trkpt lat="42.95068" lon="0.31445">
        <ele>1688</ele>
        <time>2019-01-26T12:37:40Z</time>
      </trkpt>
      <trkpt lat="42.95075" lon="0.31455">
        <ele>1689</ele>
        <time>2019-01-26T12:37:51Z</time>
      </trkpt>
      <trkpt lat="42.95077" lon="0.31467">
        <ele>1690</ele>
        <time>2019-01-26T12:38:52Z</time>
      </trkpt>
      <trkpt lat="42.95087" lon="0.31467">
        <ele>1690</ele>
        <time>2019-01-26T12:39:31Z</time>
      </trkpt>
      <trkpt lat="42.95083" lon="0.31478">
        <ele>1692</ele>
        <time>2019-01-26T12:46:25Z</time>
      </trkpt>
      <trkpt lat="42.95086" lon="0.31491">
        <ele>1692</ele>
        <time>2019-01-26T12:46:37Z</time>
      </trkpt>
      <trkpt lat="42.95094" lon="0.31499">
        <ele>1692</ele>
        <time>2019-01-26T12:46:47Z</time>
      </trkpt>
      <trkpt lat="42.95099" lon="0.3151">
        <ele>1692</ele>
        <time>2019-01-26T12:46:57Z</time>
      </trkpt>
      <trkpt lat="42.95107" lon="0.31516">
        <ele>1691</ele>
        <time>2019-01-26T12:47:18Z</time>
      </trkpt>
      <trkpt lat="42.95111" lon="0.31527">
        <ele>1691</ele>
        <time>2019-01-26T12:47:29Z</time>
      </trkpt>
      <trkpt lat="42.95116" lon="0.31539">
        <ele>1691</ele>
        <time>2019-01-26T12:47:40Z</time>
      </trkpt>
      <trkpt lat="42.95121" lon="0.3155">
        <ele>1691.7</ele>
        <time>2019-01-26T12:47:50Z</time>
      </trkpt>
      <trkpt lat="42.95121" lon="0.31562">
        <ele>1692</ele>
        <time>2019-01-26T12:48:15Z</time>
      </trkpt>
      <trkpt lat="42.95126" lon="0.31574">
        <ele>1693</ele>
        <time>2019-01-26T12:50:10Z</time>
      </trkpt>
      <trkpt lat="42.95127" lon="0.31587">
        <ele>1694</ele>
        <time>2019-01-26T12:50:20Z</time>
      </trkpt>
      <trkpt lat="42.95127" lon="0.31599">
        <ele>1695</ele>
        <time>2019-01-26T12:50:30Z</time>
      </trkpt>
      <trkpt lat="42.95134" lon="0.31609">
        <ele>1697</ele>
        <time>2019-01-26T12:50:43Z</time>
      </trkpt>
      <trkpt lat="42.95143" lon="0.31613">
        <ele>1699</ele>
        <time>2019-01-26T12:50:57Z</time>
      </trkpt>
      <trkpt lat="42.9515" lon="0.31635">
        <ele>1704</ele>
        <time>2019-01-26T12:51:24Z</time>
      </trkpt>
      <trkpt lat="42.95154" lon="0.31646">
        <ele>1708</ele>
        <time>2019-01-26T12:51:49Z</time>
      </trkpt>
      <trkpt lat="42.95154" lon="0.31659">
        <ele>1711</ele>
        <time>2019-01-26T12:52:03Z</time>
      </trkpt>
      <trkpt lat="42.95155" lon="0.31671">
        <ele>1713</ele>
        <time>2019-01-26T12:52:27Z</time>
      </trkpt>
      <trkpt lat="42.95148" lon="0.3168">
        <ele>1716</ele>
        <time>2019-01-26T12:52:45Z</time>
      </trkpt>
      <trkpt lat="42.95145" lon="0.31692">
        <ele>1717</ele>
        <time>2019-01-26T12:52:58Z</time>
      </trkpt>
      <trkpt lat="42.95142" lon="0.31704">
        <ele>1721</ele>
        <time>2019-01-26T12:53:19Z</time>
      </trkpt>
      <trkpt lat="42.95137" lon="0.31715">
        <ele>1722</ele>
        <time>2019-01-26T12:53:33Z</time>
      </trkpt>
      <trkpt lat="42.95135" lon="0.31727">
        <ele>1725</ele>
        <time>2019-01-26T12:53:54Z</time>
      </trkpt>
      <trkpt lat="42.95137" lon="0.31751">
        <ele>1730</ele>
        <time>2019-01-26T12:54:30Z</time>
      </trkpt>
      <trkpt lat="42.95136" lon="0.31764">
        <ele>1732</ele>
        <time>2019-01-26T12:54:51Z</time>
      </trkpt>
      <trkpt lat="42.95133" lon="0.31776">
        <ele>1733</ele>
        <time>2019-01-26T12:55:03Z</time>
      </trkpt>
      <trkpt lat="42.95134" lon="0.31788">
        <ele>1735</ele>
        <time>2019-01-26T12:55:22Z</time>
      </trkpt>
      <trkpt lat="42.95132" lon="0.31801">
        <ele>1737</ele>
        <time>2019-01-26T12:55:37Z</time>
      </trkpt>
      <trkpt lat="42.9513" lon="0.31813">
        <ele>1738</ele>
        <time>2019-01-26T12:55:50Z</time>
      </trkpt>
      <trkpt lat="42.95129" lon="0.31826">
        <ele>1741</ele>
        <time>2019-01-26T12:56:05Z</time>
      </trkpt>
      <trkpt lat="42.95128" lon="0.31839">
        <ele>1743</ele>
        <time>2019-01-26T12:56:23Z</time>
      </trkpt>
      <trkpt lat="42.95125" lon="0.3185">
        <ele>1745</ele>
        <time>2019-01-26T12:56:38Z</time>
      </trkpt>
      <trkpt lat="42.95123" lon="0.31862">
        <ele>1747</ele>
        <time>2019-01-26T12:56:55Z</time>
      </trkpt>
      <trkpt lat="42.95122" lon="0.31875">
        <ele>1749</ele>
        <time>2019-01-26T12:57:09Z</time>
      </trkpt>
      <trkpt lat="42.95122" lon="0.31887">
        <ele>1751</ele>
        <time>2019-01-26T12:57:25Z</time>
      </trkpt>
      <trkpt lat="42.95119" lon="0.319">
        <ele>1753</ele>
        <time>2019-01-26T12:57:39Z</time>
      </trkpt>
      <trkpt lat="42.95124" lon="0.31889">
        <ele>1752</ele>
        <time>2019-01-26T13:03:20Z</time>
      </trkpt>
      <trkpt lat="42.95125" lon="0.31876">
        <ele>1750</ele>
        <time>2019-01-26T13:03:37Z</time>
      </trkpt>
      <trkpt lat="42.95126" lon="0.31864">
        <ele>1748</ele>
        <time>2019-01-26T13:04:05Z</time>
      </trkpt>
      <trkpt lat="42.95127" lon="0.31851">
        <ele>1747</ele>
        <time>2019-01-26T13:04:21Z</time>
      </trkpt>
      <trkpt lat="42.95131" lon="0.31839">
        <ele>1745</ele>
        <time>2019-01-26T13:04:32Z</time>
      </trkpt>
      <trkpt lat="42.95131" lon="0.31827">
        <ele>1743</ele>
        <time>2019-01-26T13:04:50Z</time>
      </trkpt>
      <trkpt lat="42.95131" lon="0.31814">
        <ele>1740</ele>
        <time>2019-01-26T13:05:04Z</time>
      </trkpt>
      <trkpt lat="42.95135" lon="0.31802">
        <ele>1738.3</ele>
        <time>2019-01-26T13:05:14Z</time>
      </trkpt>
      <trkpt lat="42.95135" lon="0.31789">
        <ele>1736</ele>
        <time>2019-01-26T13:05:28Z</time>
      </trkpt>
      <trkpt lat="42.95134" lon="0.31777">
        <ele>1734</ele>
        <time>2019-01-26T13:05:49Z</time>
      </trkpt>
      <trkpt lat="42.95139" lon="0.31765">
        <ele>1733</ele>
        <time>2019-01-26T13:06:06Z</time>
      </trkpt>
      <trkpt lat="42.95138" lon="0.31753">
        <ele>1731</ele>
        <time>2019-01-26T13:06:18Z</time>
      </trkpt>
      <trkpt lat="42.95138" lon="0.31741">
        <ele>1730</ele>
        <time>2019-01-26T13:06:30Z</time>
      </trkpt>
      <trkpt lat="42.95136" lon="0.31728">
        <ele>1727.3</ele>
        <time>2019-01-26T13:06:53Z</time>
      </trkpt>
      <trkpt lat="42.95134" lon="0.31716">
        <ele>1724</ele>
        <time>2019-01-26T13:07:02Z</time>
      </trkpt>
      <trkpt lat="42.95137" lon="0.31704">
        <ele>1722</ele>
        <time>2019-01-26T13:07:12Z</time>
      </trkpt>
      <trkpt lat="42.95141" lon="0.31691">
        <ele>1720</ele>
        <time>2019-01-26T13:07:22Z</time>
      </trkpt>
      <trkpt lat="42.95145" lon="0.31679">
        <ele>1718</ele>
        <time>2019-01-26T13:07:32Z</time>
      </trkpt>
      <trkpt lat="42.95152" lon="0.31671">
        <ele>1716</ele>
        <time>2019-01-26T13:07:47Z</time>
      </trkpt>
      <trkpt lat="42.95154" lon="0.31659">
        <ele>1714</ele>
        <time>2019-01-26T13:08:01Z</time>
      </trkpt>
      <trkpt lat="42.95154" lon="0.31646">
        <ele>1711</ele>
        <time>2019-01-26T13:08:10Z</time>
      </trkpt>
      <trkpt lat="42.95154" lon="0.31633">
        <ele>1707</ele>
        <time>2019-01-26T13:08:21Z</time>
      </trkpt>
      <trkpt lat="42.95155" lon="0.3162">
        <ele>1705</ele>
        <time>2019-01-26T13:08:31Z</time>
      </trkpt>
      <trkpt lat="42.95148" lon="0.31613">
        <ele>1702.3</ele>
        <time>2019-01-26T13:08:42Z</time>
      </trkpt>
      <trkpt lat="42.9514" lon="0.31608">
        <ele>1700.1</ele>
        <time>2019-01-26T13:08:51Z</time>
      </trkpt>
      <trkpt lat="42.95132" lon="0.316">
        <ele>1699</ele>
        <time>2019-01-26T13:08:58Z</time>
      </trkpt>
      <trkpt lat="42.95128" lon="0.31588">
        <ele>1697</ele>
        <time>2019-01-26T13:09:08Z</time>
      </trkpt>
      <trkpt lat="42.95129" lon="0.31576">
        <ele>1696</ele>
        <time>2019-01-26T13:09:16Z</time>
      </trkpt>
      <trkpt lat="42.95125" lon="0.31564">
        <ele>1695</ele>
        <time>2019-01-26T13:09:26Z</time>
      </trkpt>
      <trkpt lat="42.95124" lon="0.31552">
        <ele>1694</ele>
        <time>2019-01-26T13:11:44Z</time>
      </trkpt>
      <trkpt lat="42.9512" lon="0.3154">
        <ele>1692</ele>
        <time>2019-01-26T13:11:58Z</time>
      </trkpt>
      <trkpt lat="42.95117" lon="0.31528">
        <ele>1692</ele>
        <time>2019-01-26T13:12:08Z</time>
      </trkpt>
      <trkpt lat="42.95112" lon="0.31518">
        <ele>1692</ele>
        <time>2019-01-26T13:12:18Z</time>
      </trkpt>
      <trkpt lat="42.95104" lon="0.3151">
        <ele>1692</ele>
        <time>2019-01-26T13:12:28Z</time>
      </trkpt>
      <trkpt lat="42.95099" lon="0.31499">
        <ele>1692.5</ele>
        <time>2019-01-26T13:12:37Z</time>
      </trkpt>
      <trkpt lat="42.95093" lon="0.31489">
        <ele>1692</ele>
        <time>2019-01-26T13:12:49Z</time>
      </trkpt>
      <trkpt lat="42.95088" lon="0.31478">
        <ele>1693</ele>
        <time>2019-01-26T13:13:01Z</time>
      </trkpt>
      <trkpt lat="42.95086" lon="0.31465">
        <ele>1692</ele>
        <time>2019-01-26T13:13:13Z</time>
      </trkpt>
      <trkpt lat="42.95079" lon="0.31456">
        <ele>1692</ele>
        <time>2019-01-26T13:13:21Z</time>
      </trkpt>
      <trkpt lat="42.95072" lon="0.31447">
        <ele>1691</ele>
        <time>2019-01-26T13:13:31Z</time>
      </trkpt>
      <trkpt lat="42.95063" lon="0.31445">
        <ele>1688</ele>
        <time>2019-01-26T13:14:44Z</time>
      </trkpt>
      <trkpt lat="42.95066" lon="0.31432">
        <ele>1690</ele>
        <time>2019-01-26T13:30:05Z</time>
      </trkpt>
      <trkpt lat="42.95061" lon="0.31421">
        <ele>1687</ele>
        <time>2019-01-26T13:30:33Z</time>
      </trkpt>
      <trkpt lat="42.95055" lon="0.31411">
        <ele>1686</ele>
        <time>2019-01-26T13:30:44Z</time>
      </trkpt>
      <trkpt lat="42.95056" lon="0.31398">
        <ele>1685</ele>
        <time>2019-01-26T13:30:54Z</time>
      </trkpt>
      <trkpt lat="42.95058" lon="0.31386">
        <ele>1685</ele>
        <time>2019-01-26T13:31:04Z</time>
      </trkpt>
      <trkpt lat="42.95064" lon="0.31376">
        <ele>1685</ele>
        <time>2019-01-26T13:31:15Z</time>
      </trkpt>
      <trkpt lat="42.95069" lon="0.31364">
        <ele>1684</ele>
        <time>2019-01-26T13:31:32Z</time>
      </trkpt>
      <trkpt lat="42.9507" lon="0.31338">
        <ele>1681</ele>
        <time>2019-01-26T13:31:58Z</time>
      </trkpt>
      <trkpt lat="42.95065" lon="0.31328">
        <ele>1680</ele>
        <time>2019-01-26T13:32:10Z</time>
      </trkpt>
      <trkpt lat="42.95058" lon="0.31319">
        <ele>1678</ele>
        <time>2019-01-26T13:32:21Z</time>
      </trkpt>
      <trkpt lat="42.95052" lon="0.3131">
        <ele>1676</ele>
        <time>2019-01-26T13:32:33Z</time>
      </trkpt>
      <trkpt lat="42.95044" lon="0.31303">
        <ele>1674</ele>
        <time>2019-01-26T13:32:52Z</time>
      </trkpt>
      <trkpt lat="42.95035" lon="0.31299">
        <ele>1672</ele>
        <time>2019-01-26T13:33:05Z</time>
      </trkpt>
      <trkpt lat="42.95026" lon="0.31294">
        <ele>1670.2</ele>
        <time>2019-01-26T13:33:18Z</time>
      </trkpt>
      <trkpt lat="42.95017" lon="0.31289">
        <ele>1668</ele>
        <time>2019-01-26T13:33:31Z</time>
      </trkpt>
      <trkpt lat="42.9501" lon="0.31281">
        <ele>1664</ele>
        <time>2019-01-26T13:33:44Z</time>
      </trkpt>
      <trkpt lat="42.95001" lon="0.31275">
        <ele>1662</ele>
        <time>2019-01-26T13:33:57Z</time>
      </trkpt>
      <trkpt lat="42.94994" lon="0.31268">
        <ele>1660</ele>
        <time>2019-01-26T13:34:14Z</time>
      </trkpt>
      <trkpt lat="42.94985" lon="0.31264">
        <ele>1656</ele>
        <time>2019-01-26T13:34:31Z</time>
      </trkpt>
      <trkpt lat="42.94976" lon="0.31259">
        <ele>1655</ele>
        <time>2019-01-26T13:34:41Z</time>
      </trkpt>
      <trkpt lat="42.94967" lon="0.31252">
        <ele>1652</ele>
        <time>2019-01-26T13:34:54Z</time>
      </trkpt>
      <trkpt lat="42.94958" lon="0.31247">
        <ele>1651</ele>
        <time>2019-01-26T13:35:02Z</time>
      </trkpt>
      <trkpt lat="42.94949" lon="0.31241">
        <ele>1649</ele>
        <time>2019-01-26T13:35:18Z</time>
      </trkpt>
      <trkpt lat="42.94947" lon="0.31229">
        <ele>1647</ele>
        <time>2019-01-26T13:35:32Z</time>
      </trkpt>
      <trkpt lat="42.9494" lon="0.3122">
        <ele>1645</ele>
        <time>2019-01-26T13:35:44Z</time>
      </trkpt>
      <trkpt lat="42.94931" lon="0.31215">
        <ele>1642</ele>
        <time>2019-01-26T13:35:57Z</time>
      </trkpt>
      <trkpt lat="42.94922" lon="0.31212">
        <ele>1642</ele>
        <time>2019-01-26T13:36:07Z</time>
      </trkpt>
      <trkpt lat="42.94913" lon="0.31208">
        <ele>1642</ele>
        <time>2019-01-26T13:36:15Z</time>
      </trkpt>
      <trkpt lat="42.94904" lon="0.31205">
        <ele>1640</ele>
        <time>2019-01-26T13:36:24Z</time>
      </trkpt>
      <trkpt lat="42.94896" lon="0.31201">
        <ele>1639</ele>
        <time>2019-01-26T13:36:33Z</time>
      </trkpt>
      <trkpt lat="42.94887" lon="0.31194">
        <ele>1639</ele>
        <time>2019-01-26T13:36:42Z</time>
      </trkpt>
      <trkpt lat="42.94878" lon="0.31191">
        <ele>1637</ele>
        <time>2019-01-26T13:36:53Z</time>
      </trkpt>
      <trkpt lat="42.94869" lon="0.31188">
        <ele>1635</ele>
        <time>2019-01-26T13:37:03Z</time>
      </trkpt>
      <trkpt lat="42.94865" lon="0.31177">
        <ele>1634</ele>
        <time>2019-01-26T13:37:13Z</time>
      </trkpt>
      <trkpt lat="42.94863" lon="0.31165">
        <ele>1633</ele>
        <time>2019-01-26T13:37:57Z</time>
      </trkpt>
      <trkpt lat="42.9486" lon="0.31153">
        <ele>1633</ele>
        <time>2019-01-26T13:39:11Z</time>
      </trkpt>
      <trkpt lat="42.94857" lon="0.31141">
        <ele>1633</ele>
        <time>2019-01-26T13:39:21Z</time>
      </trkpt>
      <trkpt lat="42.94857" lon="0.31128">
        <ele>1631</ele>
        <time>2019-01-26T13:39:32Z</time>
      </trkpt>
      <trkpt lat="42.94854" lon="0.31116">
        <ele>1630</ele>
        <time>2019-01-26T13:39:45Z</time>
      </trkpt>
      <trkpt lat="42.94853" lon="0.31103">
        <ele>1628</ele>
        <time>2019-01-26T13:39:57Z</time>
      </trkpt>
      <trkpt lat="42.94851" lon="0.31091">
        <ele>1626</ele>
        <time>2019-01-26T13:40:12Z</time>
      </trkpt>
      <trkpt lat="42.94853" lon="0.31078">
        <ele>1623.3</ele>
        <time>2019-01-26T13:40:24Z</time>
      </trkpt>
      <trkpt lat="42.94848" lon="0.31067">
        <ele>1620</ele>
        <time>2019-01-26T13:40:40Z</time>
      </trkpt>
      <trkpt lat="42.94841" lon="0.31059">
        <ele>1616</ele>
        <time>2019-01-26T13:40:54Z</time>
      </trkpt>
      <trkpt lat="42.94834" lon="0.31051">
        <ele>1611.1</ele>
        <time>2019-01-26T13:41:09Z</time>
      </trkpt>
      <trkpt lat="42.94833" lon="0.31038">
        <ele>1607.3</ele>
        <time>2019-01-26T13:43:08Z</time>
      </trkpt>
      <trkpt lat="42.94829" lon="0.31027">
        <ele>1603</ele>
        <time>2019-01-26T13:43:18Z</time>
      </trkpt>
      <trkpt lat="42.94827" lon="0.31014">
        <ele>1597</ele>
        <time>2019-01-26T13:43:27Z</time>
      </trkpt>
      <trkpt lat="42.94823" lon="0.31002">
        <ele>1592</ele>
        <time>2019-01-26T13:43:35Z</time>
      </trkpt>
      <trkpt lat="42.94819" lon="0.3099">
        <ele>1586.1</ele>
        <time>2019-01-26T13:43:46Z</time>
      </trkpt>
      <trkpt lat="42.94814" lon="0.30979">
        <ele>1583</ele>
        <time>2019-01-26T13:47:03Z</time>
      </trkpt>
      <trkpt lat="42.94823" lon="0.30977">
        <ele>1582</ele>
        <time>2019-01-26T13:47:29Z</time>
      </trkpt>
      <trkpt lat="42.9482" lon="0.30989">
        <ele>1584</ele>
        <time>2019-01-26T13:48:32Z</time>
      </trkpt>
      <trkpt lat="42.94816" lon="0.30977">
        <ele>1583</ele>
        <time>2019-01-26T13:49:00Z</time>
      </trkpt>
      <trkpt lat="42.94807" lon="0.3098">
        <ele>1582</ele>
        <time>2019-01-26T13:50:45Z</time>
      </trkpt>
      <trkpt lat="42.94802" lon="0.3097">
        <ele>1575.2</ele>
        <time>2019-01-26T13:51:09Z</time>
      </trkpt>
      <trkpt lat="42.94795" lon="0.3096">
        <ele>1571</ele>
        <time>2019-01-26T13:51:18Z</time>
      </trkpt>
      <trkpt lat="42.94788" lon="0.30951">
        <ele>1567</ele>
        <time>2019-01-26T13:51:24Z</time>
      </trkpt>
      <trkpt lat="42.94781" lon="0.30943">
        <ele>1563</ele>
        <time>2019-01-26T13:51:33Z</time>
      </trkpt>
      <trkpt lat="42.94778" lon="0.3093">
        <ele>1559</ele>
        <time>2019-01-26T13:51:42Z</time>
      </trkpt>
      <trkpt lat="42.94776" lon="0.30917">
        <ele>1556</ele>
        <time>2019-01-26T13:51:51Z</time>
      </trkpt>
      <trkpt lat="42.94768" lon="0.3091">
        <ele>1550</ele>
        <time>2019-01-26T13:52:09Z</time>
      </trkpt>
      <trkpt lat="42.94759" lon="0.30902">
        <ele>1546</ele>
        <time>2019-01-26T13:52:20Z</time>
      </trkpt>
      <trkpt lat="42.94758" lon="0.3089">
        <ele>1543</ele>
        <time>2019-01-26T13:52:31Z</time>
      </trkpt>
      <trkpt lat="42.94754" lon="0.30878">
        <ele>1540</ele>
        <time>2019-01-26T13:52:41Z</time>
      </trkpt>
      <trkpt lat="42.94751" lon="0.30866">
        <ele>1536</ele>
        <time>2019-01-26T13:52:53Z</time>
      </trkpt>
      <trkpt lat="42.94743" lon="0.30857">
        <ele>1534</ele>
        <time>2019-01-26T13:53:00Z</time>
      </trkpt>
      <trkpt lat="42.94733" lon="0.30854">
        <ele>1533</ele>
        <time>2019-01-26T13:53:08Z</time>
      </trkpt>
      <trkpt lat="42.94724" lon="0.30856">
        <ele>1530</ele>
        <time>2019-01-26T13:53:17Z</time>
      </trkpt>
      <trkpt lat="42.94718" lon="0.30846">
        <ele>1526</ele>
        <time>2019-01-26T13:53:34Z</time>
      </trkpt>
      <trkpt lat="42.94713" lon="0.30836">
        <ele>1523</ele>
        <time>2019-01-26T13:53:47Z</time>
      </trkpt>
      <trkpt lat="42.94708" lon="0.30825">
        <ele>1519</ele>
        <time>2019-01-26T13:53:57Z</time>
      </trkpt>
      <trkpt lat="42.947" lon="0.3082">
        <ele>1517</ele>
        <time>2019-01-26T13:54:06Z</time>
      </trkpt>
      <trkpt lat="42.94698" lon="0.30808">
        <ele>1515</ele>
        <time>2019-01-26T13:54:18Z</time>
      </trkpt>
      <trkpt lat="42.94692" lon="0.30797">
        <ele>1512</ele>
        <time>2019-01-26T13:54:29Z</time>
      </trkpt>
      <trkpt lat="42.94687" lon="0.30781">
        <ele>1511</ele>
        <time>2019-01-26T13:54:36Z</time>
      </trkpt>
      <trkpt lat="42.94676" lon="0.30783">
        <ele>1508</ele>
        <time>2019-01-26T13:55:46Z</time>
      </trkpt>
      <trkpt lat="42.94669" lon="0.30774">
        <ele>1508</ele>
        <time>2019-01-26T13:58:57Z</time>
      </trkpt>
      <trkpt lat="42.9468" lon="0.30782">
        <ele>1508</ele>
        <time>2019-01-26T13:59:41Z</time>
      </trkpt>
      <trkpt lat="42.94688" lon="0.30788">
        <ele>1508</ele>
        <time>2019-01-26T13:59:46Z</time>
      </trkpt>
      <trkpt lat="42.94679" lon="0.30785">
        <ele>1507</ele>
        <time>2019-01-26T14:00:09Z</time>
      </trkpt>
      <trkpt lat="42.9467" lon="0.30791">
        <ele>1507</ele>
        <time>2019-01-26T14:00:20Z</time>
      </trkpt>
      <trkpt lat="42.94664" lon="0.308">
        <ele>1506</ele>
        <time>2019-01-26T14:00:29Z</time>
      </trkpt>
      <trkpt lat="42.94654" lon="0.308">
        <ele>1506</ele>
        <time>2019-01-26T14:00:43Z</time>
      </trkpt>
      <trkpt lat="42.94646" lon="0.30803">
        <ele>1503</ele>
        <time>2019-01-26T14:00:54Z</time>
      </trkpt>
      <trkpt lat="42.94636" lon="0.30803">
        <ele>1501</ele>
        <time>2019-01-26T14:01:08Z</time>
      </trkpt>
      <trkpt lat="42.94628" lon="0.30809">
        <ele>1499</ele>
        <time>2019-01-26T14:01:30Z</time>
      </trkpt>
      <trkpt lat="42.9462" lon="0.30816">
        <ele>1497</ele>
        <time>2019-01-26T14:01:49Z</time>
      </trkpt>
      <trkpt lat="42.94611" lon="0.3082">
        <ele>1495</ele>
        <time>2019-01-26T14:02:14Z</time>
      </trkpt>
      <trkpt lat="42.94602" lon="0.30817">
        <ele>1492</ele>
        <time>2019-01-26T14:02:26Z</time>
      </trkpt>
      <trkpt lat="42.94594" lon="0.30809">
        <ele>1490</ele>
        <time>2019-01-26T14:02:38Z</time>
      </trkpt>
      <trkpt lat="42.94588" lon="0.30799">
        <ele>1487</ele>
        <time>2019-01-26T14:02:56Z</time>
      </trkpt>
      <trkpt lat="42.9458" lon="0.30792">
        <ele>1484</ele>
        <time>2019-01-26T14:03:10Z</time>
      </trkpt>
      <trkpt lat="42.94572" lon="0.30789">
        <ele>1482</ele>
        <time>2019-01-26T14:03:21Z</time>
      </trkpt>
      <trkpt lat="42.94564" lon="0.30781">
        <ele>1478</ele>
        <time>2019-01-26T14:04:03Z</time>
      </trkpt>
      <trkpt lat="42.94555" lon="0.30779">
        <ele>1476</ele>
        <time>2019-01-26T14:04:09Z</time>
      </trkpt>
      <trkpt lat="42.94545" lon="0.30777">
        <ele>1474</ele>
        <time>2019-01-26T14:04:18Z</time>
      </trkpt>
      <trkpt lat="42.94537" lon="0.30772">
        <ele>1469</ele>
        <time>2019-01-26T14:04:33Z</time>
      </trkpt>
      <trkpt lat="42.9453" lon="0.30762">
        <ele>1466</ele>
        <time>2019-01-26T14:04:45Z</time>
      </trkpt>
      <trkpt lat="42.94524" lon="0.3075">
        <ele>1462</ele>
        <time>2019-01-26T14:04:52Z</time>
      </trkpt>
      <trkpt lat="42.94527" lon="0.30737">
        <ele>1460</ele>
        <time>2019-01-26T14:05:03Z</time>
      </trkpt>
      <trkpt lat="42.94529" lon="0.30725">
        <ele>1460</ele>
        <time>2019-01-26T14:05:13Z</time>
      </trkpt>
      <trkpt lat="42.9453" lon="0.30712">
        <ele>1459</ele>
        <time>2019-01-26T14:05:23Z</time>
      </trkpt>
      <trkpt lat="42.94532" lon="0.30699">
        <ele>1457</ele>
        <time>2019-01-26T14:05:35Z</time>
      </trkpt>
      <trkpt lat="42.94532" lon="0.30686">
        <ele>1456</ele>
        <time>2019-01-26T14:05:44Z</time>
      </trkpt>
      <trkpt lat="42.94534" lon="0.30673">
        <ele>1455</ele>
        <time>2019-01-26T14:05:52Z</time>
      </trkpt>
      <trkpt lat="42.94535" lon="0.30661">
        <ele>1455</ele>
        <time>2019-01-26T14:06:06Z</time>
      </trkpt>
      <trkpt lat="42.94535" lon="0.30648">
        <ele>1453</ele>
        <time>2019-01-26T14:06:16Z</time>
      </trkpt>
      <trkpt lat="42.94535" lon="0.30636">
        <ele>1452</ele>
        <time>2019-01-26T14:06:27Z</time>
      </trkpt>
      <trkpt lat="42.94535" lon="0.30622">
        <ele>1450</ele>
        <time>2019-01-26T14:06:40Z</time>
      </trkpt>
      <trkpt lat="42.94534" lon="0.3061">
        <ele>1448</ele>
        <time>2019-01-26T14:06:50Z</time>
      </trkpt>
      <trkpt lat="42.94532" lon="0.30597">
        <ele>1446</ele>
        <time>2019-01-26T14:06:58Z</time>
      </trkpt>
      <trkpt lat="42.94532" lon="0.30584">
        <ele>1445</ele>
        <time>2019-01-26T14:07:06Z</time>
      </trkpt>
      <trkpt lat="42.94529" lon="0.30571">
        <ele>1443</ele>
        <time>2019-01-26T14:07:15Z</time>
      </trkpt>
      <trkpt lat="42.94528" lon="0.30558">
        <ele>1441</ele>
        <time>2019-01-26T14:07:25Z</time>
      </trkpt>
      <trkpt lat="42.94528" lon="0.30545">
        <ele>1440</ele>
        <time>2019-01-26T14:07:35Z</time>
      </trkpt>
      <trkpt lat="42.94526" lon="0.30533">
        <ele>1439</ele>
        <time>2019-01-26T14:07:42Z</time>
      </trkpt>
      <trkpt lat="42.94524" lon="0.3052">
        <ele>1438</ele>
        <time>2019-01-26T14:07:48Z</time>
      </trkpt>
      <trkpt lat="42.94523" lon="0.30507">
        <ele>1437</ele>
        <time>2019-01-26T14:07:55Z</time>
      </trkpt>
      <trkpt lat="42.94527" lon="0.30496">
        <ele>1436</ele>
        <time>2019-01-26T14:08:06Z</time>
      </trkpt>
      <trkpt lat="42.94529" lon="0.30483">
        <ele>1436</ele>
        <time>2019-01-26T14:08:15Z</time>
      </trkpt>
      <trkpt lat="42.94528" lon="0.3047">
        <ele>1436</ele>
        <time>2019-01-26T14:08:25Z</time>
      </trkpt>
      <trkpt lat="42.94528" lon="0.30457">
        <ele>1436</ele>
        <time>2019-01-26T14:08:35Z</time>
      </trkpt>
      <trkpt lat="42.94528" lon="0.30443">
        <ele>1436</ele>
        <time>2019-01-26T14:08:43Z</time>
      </trkpt>
      <trkpt lat="42.94529" lon="0.3043">
        <ele>1436</ele>
        <time>2019-01-26T14:08:52Z</time>
      </trkpt>
      <trkpt lat="42.94529" lon="0.30417">
        <ele>1435</ele>
        <time>2019-01-26T14:09:08Z</time>
      </trkpt>
      <trkpt lat="42.94531" lon="0.30404">
        <ele>1435</ele>
        <time>2019-01-26T14:15:34Z</time>
      </trkpt>
      <trkpt lat="42.9453" lon="0.30391">
        <ele>1435</ele>
        <time>2019-01-26T14:15:42Z</time>
      </trkpt>
      <trkpt lat="42.94528" lon="0.30379">
        <ele>1436</ele>
        <time>2019-01-26T14:15:55Z</time>
      </trkpt>
      <trkpt lat="42.94526" lon="0.30366">
        <ele>1437</ele>
        <time>2019-01-26T14:16:07Z</time>
      </trkpt>
      <trkpt lat="42.94523" lon="0.30341">
        <ele>1438</ele>
        <time>2019-01-26T14:16:27Z</time>
      </trkpt>
      <trkpt lat="42.9452" lon="0.30329">
        <ele>1438</ele>
        <time>2019-01-26T14:16:36Z</time>
      </trkpt>
      <trkpt lat="42.94517" lon="0.30316">
        <ele>1438</ele>
        <time>2019-01-26T14:16:47Z</time>
      </trkpt>
      <trkpt lat="42.9451" lon="0.30307">
        <ele>1438</ele>
        <time>2019-01-26T14:17:04Z</time>
      </trkpt>
      <trkpt lat="42.94503" lon="0.30298">
        <ele>1438</ele>
        <time>2019-01-26T14:17:19Z</time>
      </trkpt>
      <trkpt lat="42.94493" lon="0.30294">
        <ele>1439</ele>
        <time>2019-01-26T14:17:29Z</time>
      </trkpt>
      <trkpt lat="42.94484" lon="0.30297">
        <ele>1440</ele>
        <time>2019-01-26T14:17:36Z</time>
      </trkpt>
      <trkpt lat="42.94474" lon="0.30294">
        <ele>1441</ele>
        <time>2019-01-26T14:17:50Z</time>
      </trkpt>
      <trkpt lat="42.94465" lon="0.30291">
        <ele>1441.9</ele>
        <time>2019-01-26T14:18:02Z</time>
      </trkpt>
      <trkpt lat="42.9445" lon="0.30278">
        <ele>1443</ele>
        <time>2019-01-26T14:18:27Z</time>
      </trkpt>
      <trkpt lat="42.94441" lon="0.30273">
        <ele>1443</ele>
        <time>2019-01-26T14:18:37Z</time>
      </trkpt>
      <trkpt lat="42.94434" lon="0.30263">
        <ele>1443</ele>
        <time>2019-01-26T14:18:52Z</time>
      </trkpt>
      <trkpt lat="42.94425" lon="0.3026">
        <ele>1444</ele>
        <time>2019-01-26T14:19:05Z</time>
      </trkpt>
      <trkpt lat="42.94416" lon="0.30259">
        <ele>1444</ele>
        <time>2019-01-26T14:19:20Z</time>
      </trkpt>
      <trkpt lat="42.94409" lon="0.30268">
        <ele>1445</ele>
        <time>2019-01-26T14:19:36Z</time>
      </trkpt>
      <trkpt lat="42.944" lon="0.30273">
        <ele>1444</ele>
        <time>2019-01-26T14:19:46Z</time>
      </trkpt>
      <trkpt lat="42.9439" lon="0.30271">
        <ele>1442</ele>
        <time>2019-01-26T14:19:57Z</time>
      </trkpt>
      <trkpt lat="42.94381" lon="0.3027">
        <ele>1440</ele>
        <time>2019-01-26T14:20:11Z</time>
      </trkpt>
      <trkpt lat="42.94372" lon="0.30268">
        <ele>1438</ele>
        <time>2019-01-26T14:20:19Z</time>
      </trkpt>
      <trkpt lat="42.94364" lon="0.30276">
        <ele>1437</ele>
        <time>2019-01-26T14:20:28Z</time>
      </trkpt>
      <trkpt lat="42.94355" lon="0.30278">
        <ele>1434</ele>
        <time>2019-01-26T14:20:41Z</time>
      </trkpt>
      <trkpt lat="42.94346" lon="0.30271">
        <ele>1431</ele>
        <time>2019-01-26T14:20:54Z</time>
      </trkpt>
      <trkpt lat="42.94337" lon="0.30267">
        <ele>1429</ele>
        <time>2019-01-26T14:21:01Z</time>
      </trkpt>
      <trkpt lat="42.94328" lon="0.30262">
        <ele>1427</ele>
        <time>2019-01-26T14:21:12Z</time>
      </trkpt>
      <trkpt lat="42.94319" lon="0.30256">
        <ele>1425</ele>
        <time>2019-01-26T14:21:21Z</time>
      </trkpt>
      <trkpt lat="42.94311" lon="0.30249">
        <ele>1423</ele>
        <time>2019-01-26T14:21:33Z</time>
      </trkpt>
      <trkpt lat="42.94302" lon="0.30246">
        <ele>1419</ele>
        <time>2019-01-26T14:21:50Z</time>
      </trkpt>
      <trkpt lat="42.94293" lon="0.30241">
        <ele>1416</ele>
        <time>2019-01-26T14:21:57Z</time>
      </trkpt>
      <trkpt lat="42.94288" lon="0.30231">
        <ele>1414</ele>
        <time>2019-01-26T14:22:06Z</time>
      </trkpt>
      <trkpt lat="42.94284" lon="0.3022">
        <ele>1413</ele>
        <time>2019-01-26T14:22:13Z</time>
      </trkpt>
      <trkpt lat="42.94281" lon="0.30208">
        <ele>1411</ele>
        <time>2019-01-26T14:22:32Z</time>
      </trkpt>
      <trkpt lat="42.94279" lon="0.30195">
        <ele>1409</ele>
        <time>2019-01-26T14:24:49Z</time>
      </trkpt>
      <trkpt lat="42.94274" lon="0.30184">
        <ele>1406</ele>
        <time>2019-01-26T14:25:03Z</time>
      </trkpt>
      <trkpt lat="42.9427" lon="0.30173">
        <ele>1405</ele>
        <time>2019-01-26T14:25:12Z</time>
      </trkpt>
      <trkpt lat="42.94264" lon="0.30163">
        <ele>1403</ele>
        <time>2019-01-26T14:25:25Z</time>
      </trkpt>
      <trkpt lat="42.94258" lon="0.30153">
        <ele>1399</ele>
        <time>2019-01-26T14:25:38Z</time>
      </trkpt>
      <trkpt lat="42.94251" lon="0.30144">
        <ele>1397</ele>
        <time>2019-01-26T14:25:47Z</time>
      </trkpt>
      <trkpt lat="42.94253" lon="0.30129">
        <ele>1396</ele>
        <time>2019-01-26T14:25:56Z</time>
      </trkpt>
      <trkpt lat="42.94253" lon="0.30116">
        <ele>1396</ele>
        <time>2019-01-26T14:26:03Z</time>
      </trkpt>
      <trkpt lat="42.94252" lon="0.30103">
        <ele>1394</ele>
        <time>2019-01-26T14:26:15Z</time>
      </trkpt>
      <trkpt lat="42.94258" lon="0.30091">
        <ele>1393</ele>
        <time>2019-01-26T14:26:23Z</time>
      </trkpt>
      <trkpt lat="42.9426" lon="0.30078">
        <ele>1392</ele>
        <time>2019-01-26T14:26:29Z</time>
      </trkpt>
      <trkpt lat="42.94262" lon="0.30066">
        <ele>1390</ele>
        <time>2019-01-26T14:26:36Z</time>
      </trkpt>
      <trkpt lat="42.94257" lon="0.30051">
        <ele>1388</ele>
        <time>2019-01-26T14:26:45Z</time>
      </trkpt>
      <trkpt lat="42.94249" lon="0.30044">
        <ele>1386</ele>
        <time>2019-01-26T14:26:53Z</time>
      </trkpt>
      <trkpt lat="42.9424" lon="0.30045">
        <ele>1383</ele>
        <time>2019-01-26T14:27:07Z</time>
      </trkpt>
      <trkpt lat="42.9423" lon="0.30045">
        <ele>1382</ele>
        <time>2019-01-26T14:27:17Z</time>
      </trkpt>
      <trkpt lat="42.94222" lon="0.30038">
        <ele>1379</ele>
        <time>2019-01-26T14:27:25Z</time>
      </trkpt>
      <trkpt lat="42.94216" lon="0.30028">
        <ele>1375</ele>
        <time>2019-01-26T14:27:38Z</time>
      </trkpt>
      <trkpt lat="42.94215" lon="0.30015">
        <ele>1374</ele>
        <time>2019-01-26T14:27:43Z</time>
      </trkpt>
      <trkpt lat="42.94213" lon="0.30002">
        <ele>1375</ele>
        <time>2019-01-26T14:27:50Z</time>
      </trkpt>
      <trkpt lat="42.94214" lon="0.29989">
        <ele>1371</ele>
        <time>2019-01-26T14:28:04Z</time>
      </trkpt>
      <trkpt lat="42.94221" lon="0.29981">
        <ele>1370</ele>
        <time>2019-01-26T14:28:19Z</time>
      </trkpt>
      <trkpt lat="42.94221" lon="0.29967">
        <ele>1368.3</ele>
        <time>2019-01-26T14:31:28Z</time>
      </trkpt>
      <trkpt lat="42.94215" lon="0.29954">
        <ele>1367</ele>
        <time>2019-01-26T14:31:34Z</time>
      </trkpt>
      <trkpt lat="42.94207" lon="0.29947">
        <ele>1366</ele>
        <time>2019-01-26T14:31:42Z</time>
      </trkpt>
      <trkpt lat="42.94207" lon="0.29933">
        <ele>1365</ele>
        <time>2019-01-26T14:31:49Z</time>
      </trkpt>
      <trkpt lat="42.94206" lon="0.29919">
        <ele>1363</ele>
        <time>2019-01-26T14:31:59Z</time>
      </trkpt>
      <trkpt lat="42.94209" lon="0.29907">
        <ele>1361</ele>
        <time>2019-01-26T14:32:10Z</time>
      </trkpt>
      <trkpt lat="42.94204" lon="0.29895">
        <ele>1360</ele>
        <time>2019-01-26T14:32:16Z</time>
      </trkpt>
      <trkpt lat="42.94201" lon="0.29883">
        <ele>1358</ele>
        <time>2019-01-26T14:32:24Z</time>
      </trkpt>
      <trkpt lat="42.94195" lon="0.29872">
        <ele>1357</ele>
        <time>2019-01-26T14:32:32Z</time>
      </trkpt>
      <trkpt lat="42.94192" lon="0.2986">
        <ele>1355</ele>
        <time>2019-01-26T14:32:39Z</time>
      </trkpt>
      <trkpt lat="42.94194" lon="0.29847">
        <ele>1354</ele>
        <time>2019-01-26T14:32:49Z</time>
      </trkpt>
      <trkpt lat="42.94196" lon="0.29833">
        <ele>1352</ele>
        <time>2019-01-26T14:33:02Z</time>
      </trkpt>
      <trkpt lat="42.942" lon="0.29821">
        <ele>1352</ele>
        <time>2019-01-26T14:33:09Z</time>
      </trkpt>
      <trkpt lat="42.94201" lon="0.29806">
        <ele>1351</ele>
        <time>2019-01-26T14:33:17Z</time>
      </trkpt>
      <trkpt lat="42.94204" lon="0.29794">
        <ele>1350</ele>
        <time>2019-01-26T14:33:26Z</time>
      </trkpt>
      <trkpt lat="42.94199" lon="0.29782">
        <ele>1349</ele>
        <time>2019-01-26T14:33:38Z</time>
      </trkpt>
      <trkpt lat="42.94197" lon="0.29769">
        <ele>1347</ele>
        <time>2019-01-26T14:33:47Z</time>
      </trkpt>
      <trkpt lat="42.94204" lon="0.2976">
        <ele>1345</ele>
        <time>2019-01-26T14:33:57Z</time>
      </trkpt>
      <trkpt lat="42.94208" lon="0.29748">
        <ele>1343</ele>
        <time>2019-01-26T14:34:06Z</time>
      </trkpt>
      <trkpt lat="42.9421" lon="0.29736">
        <ele>1341</ele>
        <time>2019-01-26T14:34:13Z</time>
      </trkpt>
      <trkpt lat="42.94213" lon="0.29722">
        <ele>1338</ele>
        <time>2019-01-26T14:34:25Z</time>
      </trkpt>
      <trkpt lat="42.94218" lon="0.2971">
        <ele>1335</ele>
        <time>2019-01-26T14:34:36Z</time>
      </trkpt>
      <trkpt lat="42.94225" lon="0.297">
        <ele>1332</ele>
        <time>2019-01-26T14:34:47Z</time>
      </trkpt>
      <trkpt lat="42.94229" lon="0.29686">
        <ele>1331</ele>
        <time>2019-01-26T14:34:57Z</time>
      </trkpt>
      <trkpt lat="42.94235" lon="0.29675">
        <ele>1328</ele>
        <time>2019-01-26T14:35:05Z</time>
      </trkpt>
      <trkpt lat="42.94239" lon="0.29662">
        <ele>1323</ele>
        <time>2019-01-26T14:35:17Z</time>
      </trkpt>
      <trkpt lat="42.94238" lon="0.2965">
        <ele>1321</ele>
        <time>2019-01-26T14:35:22Z</time>
      </trkpt>
      <trkpt lat="42.94237" lon="0.29634">
        <ele>1318</ele>
        <time>2019-01-26T14:35:33Z</time>
      </trkpt>
      <trkpt lat="42.94233" lon="0.29621">
        <ele>1315.1</ele>
        <time>2019-01-26T14:35:38Z</time>
      </trkpt>
      <trkpt lat="42.94234" lon="0.29609">
        <ele>1311</ele>
        <time>2019-01-26T14:35:51Z</time>
      </trkpt>
      <trkpt lat="42.94233" lon="0.29596">
        <ele>1307</ele>
        <time>2019-01-26T14:35:57Z</time>
      </trkpt>
      <trkpt lat="42.94231" lon="0.29571">
        <ele>1303</ele>
        <time>2019-01-26T14:36:10Z</time>
      </trkpt>
      <trkpt lat="42.9423" lon="0.29558">
        <ele>1297</ele>
        <time>2019-01-26T14:36:23Z</time>
      </trkpt>
      <trkpt lat="42.94231" lon="0.29545">
        <ele>1293</ele>
        <time>2019-01-26T14:36:35Z</time>
      </trkpt>
      <trkpt lat="42.94235" lon="0.2953">
        <ele>1290</ele>
        <time>2019-01-26T14:36:45Z</time>
      </trkpt>
      <trkpt lat="42.94234" lon="0.29513">
        <ele>1286</ele>
        <time>2019-01-26T14:36:58Z</time>
      </trkpt>
      <trkpt lat="42.94234" lon="0.295">
        <ele>1284</ele>
        <time>2019-01-26T14:37:19Z</time>
      </trkpt>
      <trkpt lat="42.94237" lon="0.29489">
        <ele>1284</ele>
        <time>2019-01-26T14:37:21Z</time>
      </trkpt>
      <trkpt lat="42.94241" lon="0.295">
        <ele>1284</ele>
        <time>2019-01-26T14:37:30Z</time>
      </trkpt>
      <trkpt lat="42.94233" lon="0.29508">
        <ele>1283</ele>
        <time>2019-01-26T14:38:00Z</time>
      </trkpt>
      <trkpt lat="42.9423" lon="0.2952">
        <ele>1282</ele>
        <time>2019-01-26T14:38:38Z</time>
      </trkpt>
      <trkpt lat="42.94227" lon="0.29507">
        <ele>1283</ele>
        <time>2019-01-26T14:39:25Z</time>
      </trkpt>
      <trkpt lat="42.94236" lon="0.29513">
        <ele>1283</ele>
        <time>2019-01-26T14:40:56Z</time>
      </trkpt>
      <trkpt lat="42.94227" lon="0.29513">
        <ele>1283</ele>
        <time>2019-01-26T14:41:09Z</time>
      </trkpt>
      <trkpt lat="42.94221" lon="0.2951">
        <ele>1281</ele>
        <time>2019-01-26T14:42:37Z</time>
      </trkpt>
      <trkpt lat="42.94224" lon="0.29496">
        <ele>1279</ele>
        <time>2019-01-26T14:42:45Z</time>
      </trkpt>
      <trkpt lat="42.94223" lon="0.29484">
        <ele>1274</ele>
        <time>2019-01-26T14:42:53Z</time>
      </trkpt>
      <trkpt lat="42.94218" lon="0.29471">
        <ele>1274</ele>
        <time>2019-01-26T14:42:59Z</time>
      </trkpt>
      <trkpt lat="42.94215" lon="0.29458">
        <ele>1269</ele>
        <time>2019-01-26T14:43:08Z</time>
      </trkpt>
      <trkpt lat="42.94213" lon="0.29442">
        <ele>1267.3</ele>
        <time>2019-01-26T14:43:13Z</time>
      </trkpt>
      <trkpt lat="42.9421" lon="0.2943">
        <ele>1262</ele>
        <time>2019-01-26T14:43:22Z</time>
      </trkpt>
      <trkpt lat="42.94208" lon="0.29414">
        <ele>1259</ele>
        <time>2019-01-26T14:43:28Z</time>
      </trkpt>
      <trkpt lat="42.94205" lon="0.29402">
        <ele>1255</ele>
        <time>2019-01-26T14:43:36Z</time>
      </trkpt>
      <trkpt lat="42.94207" lon="0.29389">
        <ele>1252</ele>
        <time>2019-01-26T14:43:47Z</time>
      </trkpt>
      <trkpt lat="42.94216" lon="0.29382">
        <ele>1247</ele>
        <time>2019-01-26T14:43:58Z</time>
      </trkpt>
      <trkpt lat="42.9422" lon="0.29369">
        <ele>1243</ele>
        <time>2019-01-26T14:44:08Z</time>
      </trkpt>
      <trkpt lat="42.94232" lon="0.29365">
        <ele>1242</ele>
        <time>2019-01-26T14:44:13Z</time>
      </trkpt>
      <trkpt lat="42.94237" lon="0.29354">
        <ele>1240</ele>
        <time>2019-01-26T14:44:21Z</time>
      </trkpt>
      <trkpt lat="42.94247" lon="0.29345">
        <ele>1237</ele>
        <time>2019-01-26T14:44:29Z</time>
      </trkpt>
      <trkpt lat="42.94256" lon="0.29337">
        <ele>1235</ele>
        <time>2019-01-26T14:44:34Z</time>
      </trkpt>
      <trkpt lat="42.94264" lon="0.29332">
        <ele>1233</ele>
        <time>2019-01-26T14:44:42Z</time>
      </trkpt>
      <trkpt lat="42.94274" lon="0.29332">
        <ele>1231</ele>
        <time>2019-01-26T14:45:09Z</time>
      </trkpt>
      <trkpt lat="42.94265" lon="0.29334">
        <ele>1231</ele>
        <time>2019-01-26T14:45:17Z</time>
      </trkpt>
      <trkpt lat="42.94258" lon="0.29325">
        <ele>1231</ele>
        <time>2019-01-26T14:45:33Z</time>
      </trkpt>
      <trkpt lat="42.94252" lon="0.29311">
        <ele>1229</ele>
        <time>2019-01-26T14:46:22Z</time>
      </trkpt>
      <trkpt lat="42.94255" lon="0.29322">
        <ele>1230</ele>
        <time>2019-01-26T14:46:42Z</time>
      </trkpt>
      <trkpt lat="42.94259" lon="0.29333">
        <ele>1231</ele>
        <time>2019-01-26T14:47:22Z</time>
      </trkpt>
      <trkpt lat="42.94267" lon="0.29339">
        <ele>1231</ele>
        <time>2019-01-26T14:47:25Z</time>
      </trkpt>
      <trkpt lat="42.94258" lon="0.29334">
        <ele>1231</ele>
        <time>2019-01-26T14:48:01Z</time>
      </trkpt>
      <trkpt lat="42.94266" lon="0.2933">
        <ele>1229</ele>
        <time>2019-01-26T14:49:21Z</time>
      </trkpt>
      <trkpt lat="42.94274" lon="0.29322">
        <ele>1227</ele>
        <time>2019-01-26T14:49:28Z</time>
      </trkpt>
      <trkpt lat="42.94283" lon="0.29317">
        <ele>1225</ele>
        <time>2019-01-26T14:49:34Z</time>
      </trkpt>
      <trkpt lat="42.94283" lon="0.29303">
        <ele>1222</ele>
        <time>2019-01-26T14:49:41Z</time>
      </trkpt>
      <trkpt lat="42.94281" lon="0.29288">
        <ele>1218</ele>
        <time>2019-01-26T14:49:55Z</time>
      </trkpt>
      <trkpt lat="42.94284" lon="0.29265">
        <ele>1213</ele>
        <time>2019-01-26T14:50:11Z</time>
      </trkpt>
      <trkpt lat="42.94289" lon="0.29255">
        <ele>1212</ele>
        <time>2019-01-26T14:50:22Z</time>
      </trkpt>
      <trkpt lat="42.943" lon="0.29244">
        <ele>1209</ele>
        <time>2019-01-26T14:50:32Z</time>
      </trkpt>
      <trkpt lat="42.94306" lon="0.29234">
        <ele>1209</ele>
        <time>2019-01-26T14:50:37Z</time>
      </trkpt>
      <trkpt lat="42.94307" lon="0.29221">
        <ele>1204</ele>
        <time>2019-01-26T14:50:52Z</time>
      </trkpt>
      <trkpt lat="42.94305" lon="0.29208">
        <ele>1203</ele>
        <time>2019-01-26T14:50:59Z</time>
      </trkpt>
      <trkpt lat="42.94307" lon="0.29195">
        <ele>1201</ele>
        <time>2019-01-26T14:51:12Z</time>
      </trkpt>
      <trkpt lat="42.94305" lon="0.29182">
        <ele>1200</ele>
        <time>2019-01-26T14:51:21Z</time>
      </trkpt>
      <trkpt lat="42.94304" lon="0.29167">
        <ele>1197.4</ele>
        <time>2019-01-26T14:51:34Z</time>
      </trkpt>
      <trkpt lat="42.94303" lon="0.29154">
        <ele>1196</ele>
        <time>2019-01-26T14:51:41Z</time>
      </trkpt>
      <trkpt lat="42.94299" lon="0.29142">
        <ele>1195</ele>
        <time>2019-01-26T14:51:46Z</time>
      </trkpt>
      <trkpt lat="42.94295" lon="0.2913">
        <ele>1194</ele>
        <time>2019-01-26T14:51:56Z</time>
      </trkpt>
      <trkpt lat="42.94295" lon="0.29118">
        <ele>1191</ele>
        <time>2019-01-26T14:52:05Z</time>
      </trkpt>
      <trkpt lat="42.943" lon="0.29107">
        <ele>1188</ele>
        <time>2019-01-26T14:52:15Z</time>
      </trkpt>
      <trkpt lat="42.94297" lon="0.29094">
        <ele>1185</ele>
        <time>2019-01-26T14:52:25Z</time>
      </trkpt>
      <trkpt lat="42.94294" lon="0.29082">
        <ele>1182</ele>
        <time>2019-01-26T14:52:39Z</time>
      </trkpt>
      <trkpt lat="42.94295" lon="0.29064">
        <ele>1180</ele>
        <time>2019-01-26T14:52:43Z</time>
      </trkpt>
      <trkpt lat="42.94296" lon="0.2905">
        <ele>1180</ele>
        <time>2019-01-26T14:52:45Z</time>
      </trkpt>
      <trkpt lat="42.94294" lon="0.29037">
        <ele>1177.2</ele>
        <time>2019-01-26T14:52:53Z</time>
      </trkpt>
      <trkpt lat="42.94295" lon="0.29023">
        <ele>1173.2</ele>
        <time>2019-01-26T14:53:04Z</time>
      </trkpt>
      <trkpt lat="42.94297" lon="0.29011">
        <ele>1171</ele>
        <time>2019-01-26T14:53:11Z</time>
      </trkpt>
      <trkpt lat="42.94294" lon="0.28998">
        <ele>1166</ele>
        <time>2019-01-26T14:53:19Z</time>
      </trkpt>
      <trkpt lat="42.94289" lon="0.28987">
        <ele>1165</ele>
        <time>2019-01-26T14:53:25Z</time>
      </trkpt>
      <trkpt lat="42.94278" lon="0.28981">
        <ele>1165</ele>
        <time>2019-01-26T14:53:33Z</time>
      </trkpt>
      <trkpt lat="42.94271" lon="0.28973">
        <ele>1163</ele>
        <time>2019-01-26T14:53:53Z</time>
      </trkpt>
      <trkpt lat="42.94264" lon="0.28964">
        <ele>1161</ele>
        <time>2019-01-26T14:54:17Z</time>
      </trkpt>
      <trkpt lat="42.94269" lon="0.28953">
        <ele>1158</ele>
        <time>2019-01-26T14:54:29Z</time>
      </trkpt>
      <trkpt lat="42.94272" lon="0.28942">
        <ele>1155</ele>
        <time>2019-01-26T14:54:37Z</time>
      </trkpt>
      <trkpt lat="42.94278" lon="0.28931">
        <ele>1149.5</ele>
        <time>2019-01-26T14:54:51Z</time>
      </trkpt>
      <trkpt lat="42.94283" lon="0.2892">
        <ele>1147</ele>
        <time>2019-01-26T14:54:59Z</time>
      </trkpt>
      <trkpt lat="42.94284" lon="0.28906">
        <ele>1144</ele>
        <time>2019-01-26T14:55:10Z</time>
      </trkpt>
      <trkpt lat="42.94289" lon="0.28896">
        <ele>1141</ele>
        <time>2019-01-26T14:55:18Z</time>
      </trkpt>
      <trkpt lat="42.94294" lon="0.28885">
        <ele>1138</ele>
        <time>2019-01-26T14:55:25Z</time>
      </trkpt>
      <trkpt lat="42.94296" lon="0.28873">
        <ele>1135</ele>
        <time>2019-01-26T14:55:34Z</time>
      </trkpt>
      <trkpt lat="42.94297" lon="0.2886">
        <ele>1131.3</ele>
        <time>2019-01-26T14:55:44Z</time>
      </trkpt>
      <trkpt lat="42.94305" lon="0.28852">
        <ele>1129</ele>
        <time>2019-01-26T14:56:15Z</time>
      </trkpt>
      <trkpt lat="42.94314" lon="0.28854">
        <ele>1128</ele>
        <time>2019-01-26T14:57:30Z</time>
      </trkpt>
      <trkpt lat="42.94322" lon="0.28849">
        <ele>1126</ele>
        <time>2019-01-26T14:58:12Z</time>
      </trkpt>
      <trkpt lat="42.94331" lon="0.2885">
        <ele>1125</ele>
        <time>2019-01-26T14:58:22Z</time>
      </trkpt>
      <trkpt lat="42.9434" lon="0.28854">
        <ele>1125</ele>
        <time>2019-01-26T14:58:35Z</time>
      </trkpt>
      <trkpt lat="42.94349" lon="0.28858">
        <ele>1124</ele>
        <time>2019-01-26T14:58:45Z</time>
      </trkpt>
      <trkpt lat="42.94358" lon="0.28855">
        <ele>1121</ele>
        <time>2019-01-26T14:59:02Z</time>
      </trkpt>
      <trkpt lat="42.94368" lon="0.28858">
        <ele>1120</ele>
        <time>2019-01-26T14:59:10Z</time>
      </trkpt>
      <trkpt lat="42.94377" lon="0.28863">
        <ele>1118</ele>
        <time>2019-01-26T14:59:20Z</time>
      </trkpt>
      <trkpt lat="42.94386" lon="0.28867">
        <ele>1118</ele>
        <time>2019-01-26T14:59:27Z</time>
      </trkpt>
      <trkpt lat="42.94396" lon="0.28866">
        <ele>1118</ele>
        <time>2019-01-26T14:59:37Z</time>
      </trkpt>
      <trkpt lat="42.94404" lon="0.2886">
        <ele>1115</ele>
        <time>2019-01-26T14:59:52Z</time>
      </trkpt>
      <trkpt lat="42.94407" lon="0.28848">
        <ele>1114</ele>
        <time>2019-01-26T15:00:05Z</time>
      </trkpt>
      <trkpt lat="42.94405" lon="0.28842">
        <ele>1114.1</ele>
        <time>2019-01-26T15:00:15Z</time>
      </trkpt>
    </trkseg>
  </trk>
</gpx>